<?xml version="1.0" encoding="UTF-8" standalone="no" ?>
<gpx xmlns="http://www.topografix.com/GPX/1/1" xmlns:xsi="http://www.w3.org/2001/XMLSchema-instance" xsi:schemaLocation="http://www.topografix.com/GPX/1/1 http://www.topografix.com/GPX/1/1/gpx.xsd" version="1.1" creator="VisuGPX - https://www.visugpx.com">
  <metadata>
    <name>Pic du Gar et Pic Saillant en boucle depuis le Col des Ares</name>
  </metadata>
  <wpt lat="42.98943" lon="0.69359">
    <ele>792</ele>
    <name><![CDATA[Parking des chasseurs]]></name>
  </wpt>
  <wpt lat="42.9891" lon="0.69677">
    <ele>834</ele>
    <name><![CDATA[Les quatre chemins]]></name>
  </wpt>
  <wpt lat="42.98224" lon="0.68919">
    <ele>946</ele>
    <name><![CDATA[Montée en crête]]></name>
  </wpt>
  <wpt lat="42.97657" lon="0.68475">
    <ele>943</ele>
    <name><![CDATA[Carrefour des boucles]]></name>
  </wpt>
  <wpt lat="42.96813" lon="0.69047">
    <ele>1233</ele>
    <name><![CDATA[Passage de Pontet]]></name>
  </wpt>
  <wpt lat="42.96366" lon="0.69279">
    <ele>1264</ele>
    <name><![CDATA[Barbachine]]></name>
  </wpt>
  <wpt lat="42.95484" lon="0.69352">
    <ele>1548</ele>
    <name><![CDATA[Cabane du Pic du Gar]]></name>
  </wpt>
  <wpt lat="42.94922" lon="0.69706">
    <ele>1712</ele>
    <name><![CDATA[Accès au Pic saillant]]></name>
  </wpt>
  <wpt lat="42.96342" lon="0.68356">
    <ele>1167</ele>
    <name><![CDATA[Jonction - Large piste]]></name>
  </wpt>
  <wpt lat="42.96165" lon="0.68004">
    <ele>1123</ele>
    <name><![CDATA[Bifurcation en Y]]></name>
  </wpt>
  <wpt lat="42.98947" lon="0.69364">
    <ele>793</ele>
    <name><![CDATA[Parking des chasseurs]]></name>
  </wpt>
  <trk>
    <name><![CDATA[Pic du Gar et Pic Saillant en boucle depuis le Col des Ares]]></name>
    <trkseg>
      <trkpt lat="42.98943" lon="0.69359">
        <ele>792</ele>
        <time>2023-09-27T08:29:19+02:00</time>
      </trkpt>
      <trkpt lat="42.98956" lon="0.69378">
        <ele>797</ele>
        <time>2023-09-27T08:30:07+02:00</time>
      </trkpt>
      <trkpt lat="42.98976" lon="0.6938">
        <ele>799</ele>
        <time>2023-09-27T08:30:34+02:00</time>
      </trkpt>
      <trkpt lat="42.98992" lon="0.69393">
        <ele>805</ele>
        <time>2023-09-27T09:21:59+02:00</time>
      </trkpt>
      <trkpt lat="42.99005" lon="0.69411">
        <ele>809</ele>
        <time>2023-09-27T09:22:31+02:00</time>
      </trkpt>
      <trkpt lat="42.99008" lon="0.69438">
        <ele>811</ele>
        <time>2023-09-27T09:22:57+02:00</time>
      </trkpt>
      <trkpt lat="42.99002" lon="0.69461">
        <ele>813</ele>
        <time>2023-09-27T09:23:21+02:00</time>
      </trkpt>
      <trkpt lat="42.98996" lon="0.69485">
        <ele>815</ele>
        <time>2023-09-27T09:23:40+02:00</time>
      </trkpt>
      <trkpt lat="42.98989" lon="0.69508">
        <ele>818</ele>
        <time>2023-09-27T09:24:00+02:00</time>
      </trkpt>
      <trkpt lat="42.9898" lon="0.6953">
        <ele>820</ele>
        <time>2023-09-27T09:24:24+02:00</time>
      </trkpt>
      <trkpt lat="42.9897" lon="0.69551">
        <ele>823</ele>
        <time>2023-09-27T09:24:45+02:00</time>
      </trkpt>
      <trkpt lat="42.9896" lon="0.69573">
        <ele>825</ele>
        <time>2023-09-27T09:25:11+02:00</time>
      </trkpt>
      <trkpt lat="42.98953" lon="0.69597">
        <ele>828</ele>
        <time>2023-09-27T09:25:35+02:00</time>
      </trkpt>
      <trkpt lat="42.98939" lon="0.69613">
        <ele>829</ele>
        <time>2023-09-27T09:25:59+02:00</time>
      </trkpt>
      <trkpt lat="42.98927" lon="0.69633">
        <ele>831</ele>
        <time>2023-09-27T09:26:26+02:00</time>
      </trkpt>
      <trkpt lat="42.98914" lon="0.69651">
        <ele>833</ele>
        <time>2023-09-27T09:26:56+02:00</time>
      </trkpt>
      <trkpt lat="42.9891" lon="0.69677">
        <ele>834</ele>
        <time>2023-09-27T09:27:18+02:00</time>
      </trkpt>
      <trkpt lat="42.98893" lon="0.6967">
        <ele>832</ele>
        <time>2023-09-27T09:27:47+02:00</time>
      </trkpt>
      <trkpt lat="42.98873" lon="0.69671">
        <ele>833</ele>
        <time>2023-09-27T09:28:06+02:00</time>
      </trkpt>
      <trkpt lat="42.98856" lon="0.6968">
        <ele>836</ele>
        <time>2023-09-27T09:28:25+02:00</time>
      </trkpt>
      <trkpt lat="42.98838" lon="0.69675">
        <ele>837</ele>
        <time>2023-09-27T09:28:45+02:00</time>
      </trkpt>
      <trkpt lat="42.98819" lon="0.69676">
        <ele>842</ele>
        <time>2023-09-27T09:29:04+02:00</time>
      </trkpt>
      <trkpt lat="42.98801" lon="0.69673">
        <ele>847</ele>
        <time>2023-09-27T09:29:20+02:00</time>
      </trkpt>
      <trkpt lat="42.98783" lon="0.69664">
        <ele>851</ele>
        <time>2023-09-27T09:29:38+02:00</time>
      </trkpt>
      <trkpt lat="42.98765" lon="0.69653">
        <ele>855</ele>
        <time>2023-09-27T09:29:58+02:00</time>
      </trkpt>
      <trkpt lat="42.98747" lon="0.69643">
        <ele>860</ele>
        <time>2023-09-27T09:30:23+02:00</time>
      </trkpt>
      <trkpt lat="42.9873" lon="0.69636">
        <ele>864</ele>
        <time>2023-09-27T09:30:49+02:00</time>
      </trkpt>
      <trkpt lat="42.98715" lon="0.6962">
        <ele>866</ele>
        <time>2023-09-27T09:31:11+02:00</time>
      </trkpt>
      <trkpt lat="42.98698" lon="0.6961">
        <ele>870</ele>
        <time>2023-09-27T09:31:36+02:00</time>
      </trkpt>
      <trkpt lat="42.98682" lon="0.69597">
        <ele>875</ele>
        <time>2023-09-27T09:32:00+02:00</time>
      </trkpt>
      <trkpt lat="42.98665" lon="0.69587">
        <ele>880</ele>
        <time>2023-09-27T09:32:23+02:00</time>
      </trkpt>
      <trkpt lat="42.98647" lon="0.69578">
        <ele>886</ele>
        <time>2023-09-27T09:32:47+02:00</time>
      </trkpt>
      <trkpt lat="42.9863" lon="0.69569">
        <ele>892</ele>
        <time>2023-09-27T09:33:13+02:00</time>
      </trkpt>
      <trkpt lat="42.98616" lon="0.69555">
        <ele>895</ele>
        <time>2023-09-27T09:33:46+02:00</time>
      </trkpt>
      <trkpt lat="42.98601" lon="0.69542">
        <ele>899</ele>
        <time>2023-09-27T09:34:20+02:00</time>
      </trkpt>
      <trkpt lat="42.98586" lon="0.69527">
        <ele>901</ele>
        <time>2023-09-27T09:34:54+02:00</time>
      </trkpt>
      <trkpt lat="42.98569" lon="0.69515">
        <ele>903</ele>
        <time>2023-09-27T09:35:17+02:00</time>
      </trkpt>
      <trkpt lat="42.98554" lon="0.69501">
        <ele>904</ele>
        <time>2023-09-27T09:35:51+02:00</time>
      </trkpt>
      <trkpt lat="42.98537" lon="0.69497">
        <ele>906</ele>
        <time>2023-09-27T09:37:48+02:00</time>
      </trkpt>
      <trkpt lat="42.98521" lon="0.69485">
        <ele>908</ele>
        <time>2023-09-27T09:38:16+02:00</time>
      </trkpt>
      <trkpt lat="42.98505" lon="0.69471">
        <ele>912</ele>
        <time>2023-09-27T09:38:45+02:00</time>
      </trkpt>
      <trkpt lat="42.98492" lon="0.69454">
        <ele>915</ele>
        <time>2023-09-27T09:39:43+02:00</time>
      </trkpt>
      <trkpt lat="42.9848" lon="0.69435">
        <ele>920</ele>
        <time>2023-09-27T09:40:16+02:00</time>
      </trkpt>
      <trkpt lat="42.98473" lon="0.69413">
        <ele>928</ele>
        <time>2023-09-27T09:40:46+02:00</time>
      </trkpt>
      <trkpt lat="42.98463" lon="0.69391">
        <ele>932</ele>
        <time>2023-09-27T09:41:21+02:00</time>
      </trkpt>
      <trkpt lat="42.98455" lon="0.6937">
        <ele>936</ele>
        <time>2023-09-27T09:41:55+02:00</time>
      </trkpt>
      <trkpt lat="42.98442" lon="0.69351">
        <ele>939</ele>
        <time>2023-09-27T09:42:16+02:00</time>
      </trkpt>
      <trkpt lat="42.98429" lon="0.69332">
        <ele>939</ele>
        <time>2023-09-27T09:42:39+02:00</time>
      </trkpt>
      <trkpt lat="42.98415" lon="0.69314">
        <ele>940</ele>
        <time>2023-09-27T09:43:00+02:00</time>
      </trkpt>
      <trkpt lat="42.98405" lon="0.69292">
        <ele>940</ele>
        <time>2023-09-27T09:43:20+02:00</time>
      </trkpt>
      <trkpt lat="42.98393" lon="0.69271">
        <ele>940</ele>
        <time>2023-09-27T09:43:40+02:00</time>
      </trkpt>
      <trkpt lat="42.9838" lon="0.69252">
        <ele>940</ele>
        <time>2023-09-27T09:44:00+02:00</time>
      </trkpt>
      <trkpt lat="42.98369" lon="0.69231">
        <ele>940</ele>
        <time>2023-09-27T09:44:19+02:00</time>
      </trkpt>
      <trkpt lat="42.98361" lon="0.69207">
        <ele>940</ele>
        <time>2023-09-27T09:44:38+02:00</time>
      </trkpt>
      <trkpt lat="42.9835" lon="0.69185">
        <ele>940</ele>
        <time>2023-09-27T09:44:55+02:00</time>
      </trkpt>
      <trkpt lat="42.98339" lon="0.69165">
        <ele>940</ele>
        <time>2023-09-27T09:45:11+02:00</time>
      </trkpt>
      <trkpt lat="42.98327" lon="0.69145">
        <ele>940</ele>
        <time>2023-09-27T09:45:28+02:00</time>
      </trkpt>
      <trkpt lat="42.98315" lon="0.69126">
        <ele>939</ele>
        <time>2023-09-27T09:45:45+02:00</time>
      </trkpt>
      <trkpt lat="42.98304" lon="0.69105">
        <ele>940</ele>
        <time>2023-09-27T09:46:03+02:00</time>
      </trkpt>
      <trkpt lat="42.98295" lon="0.69083">
        <ele>940</ele>
        <time>2023-09-27T09:46:26+02:00</time>
      </trkpt>
      <trkpt lat="42.98286" lon="0.6906">
        <ele>940</ele>
        <time>2023-09-27T09:46:43+02:00</time>
      </trkpt>
      <trkpt lat="42.98281" lon="0.69035">
        <ele>940</ele>
        <time>2023-09-27T09:47:02+02:00</time>
      </trkpt>
      <trkpt lat="42.98271" lon="0.69014">
        <ele>940</ele>
        <time>2023-09-27T09:47:23+02:00</time>
      </trkpt>
      <trkpt lat="42.98261" lon="0.68992">
        <ele>940</ele>
        <time>2023-09-27T09:47:42+02:00</time>
      </trkpt>
      <trkpt lat="42.98249" lon="0.68972">
        <ele>940</ele>
        <time>2023-09-27T09:48:01+02:00</time>
      </trkpt>
      <trkpt lat="42.98241" lon="0.68949">
        <ele>943</ele>
        <time>2023-09-27T09:48:25+02:00</time>
      </trkpt>
      <trkpt lat="42.98231" lon="0.68928">
        <ele>945</ele>
        <time>2023-09-27T09:48:43+02:00</time>
      </trkpt>
      <trkpt lat="42.98224" lon="0.68919">
        <ele>946</ele>
        <time>2023-09-27T09:48:51+02:00</time>
      </trkpt>
      <trkpt lat="42.9821" lon="0.68906">
        <ele>947</ele>
        <time>2023-09-27T09:49:09+02:00</time>
      </trkpt>
      <trkpt lat="42.98191" lon="0.68895">
        <ele>950</ele>
        <time>2023-09-27T09:49:28+02:00</time>
      </trkpt>
      <trkpt lat="42.9817" lon="0.68897">
        <ele>957</ele>
        <time>2023-09-27T09:50:08+02:00</time>
      </trkpt>
      <trkpt lat="42.98157" lon="0.68901">
        <ele>963</ele>
        <time>2023-09-27T09:50:31+02:00</time>
      </trkpt>
      <trkpt lat="42.98139" lon="0.6891">
        <ele>970</ele>
        <time>2023-09-27T09:50:59+02:00</time>
      </trkpt>
      <trkpt lat="42.98122" lon="0.68911">
        <ele>975</ele>
        <time>2023-09-27T09:51:38+02:00</time>
      </trkpt>
      <trkpt lat="42.98105" lon="0.68913">
        <ele>977</ele>
        <time>2023-09-27T09:52:16+02:00</time>
      </trkpt>
      <trkpt lat="42.98093" lon="0.6889">
        <ele>980</ele>
      </trkpt>
      <trkpt lat="42.98084" lon="0.68867">
        <ele>982</ele>
      </trkpt>
      <trkpt lat="42.98077" lon="0.68845">
        <ele>984</ele>
        <time>2023-09-27T09:56:15+02:00</time>
      </trkpt>
      <trkpt lat="42.98066" lon="0.68824">
        <ele>987</ele>
        <time>2023-09-27T09:56:46+02:00</time>
      </trkpt>
      <trkpt lat="42.98056" lon="0.68802">
        <ele>991</ele>
        <time>2023-09-27T09:57:38+02:00</time>
      </trkpt>
      <trkpt lat="42.98049" lon="0.68779">
        <ele>993</ele>
        <time>2023-09-27T09:58:03+02:00</time>
      </trkpt>
      <trkpt lat="42.98038" lon="0.68756">
        <ele>996</ele>
        <time>2023-09-27T09:58:25+02:00</time>
      </trkpt>
      <trkpt lat="42.98028" lon="0.68735">
        <ele>1001</ele>
        <time>2023-09-27T09:58:51+02:00</time>
      </trkpt>
      <trkpt lat="42.98018" lon="0.68714">
        <ele>1003</ele>
        <time>2023-09-27T09:59:26+02:00</time>
      </trkpt>
      <trkpt lat="42.98009" lon="0.68692">
        <ele>1007</ele>
        <time>2023-09-27T10:00:03+02:00</time>
      </trkpt>
      <trkpt lat="42.98006" lon="0.68679">
        <ele>1008</ele>
        <time>2023-09-27T10:00:27+02:00</time>
      </trkpt>
      <trkpt lat="42.97998" lon="0.68656">
        <ele>1008</ele>
        <time>2023-09-27T10:00:55+02:00</time>
      </trkpt>
      <trkpt lat="42.97988" lon="0.68635">
        <ele>1003</ele>
        <time>2023-09-27T10:01:41+02:00</time>
      </trkpt>
      <trkpt lat="42.97981" lon="0.68613">
        <ele>999</ele>
        <time>2023-09-27T10:02:22+02:00</time>
      </trkpt>
      <trkpt lat="42.97967" lon="0.68597">
        <ele>994</ele>
        <time>2023-09-27T10:02:48+02:00</time>
      </trkpt>
      <trkpt lat="42.97954" lon="0.68578">
        <ele>991</ele>
        <time>2023-09-27T10:03:16+02:00</time>
      </trkpt>
      <trkpt lat="42.9794" lon="0.68568">
        <ele>990</ele>
        <time>2023-09-27T10:03:42+02:00</time>
      </trkpt>
      <trkpt lat="42.97923" lon="0.6856">
        <ele>990</ele>
        <time>2023-09-27T10:04:03+02:00</time>
      </trkpt>
      <trkpt lat="42.97904" lon="0.68553">
        <ele>990</ele>
        <time>2023-09-27T10:04:21+02:00</time>
      </trkpt>
      <trkpt lat="42.97886" lon="0.68548">
        <ele>988</ele>
        <time>2023-09-27T10:04:42+02:00</time>
      </trkpt>
      <trkpt lat="42.97867" lon="0.68547">
        <ele>985</ele>
        <time>2023-09-27T10:05:02+02:00</time>
      </trkpt>
      <trkpt lat="42.97849" lon="0.68544">
        <ele>981</ele>
        <time>2023-09-27T10:05:22+02:00</time>
      </trkpt>
      <trkpt lat="42.97831" lon="0.68534">
        <ele>980</ele>
        <time>2023-09-27T10:05:43+02:00</time>
      </trkpt>
      <trkpt lat="42.97813" lon="0.68525">
        <ele>975</ele>
        <time>2023-09-27T10:06:01+02:00</time>
      </trkpt>
      <trkpt lat="42.97796" lon="0.68513">
        <ele>971</ele>
        <time>2023-09-27T10:06:20+02:00</time>
      </trkpt>
      <trkpt lat="42.97782" lon="0.68498">
        <ele>967</ele>
        <time>2023-09-27T10:06:43+02:00</time>
      </trkpt>
      <trkpt lat="42.97764" lon="0.68487">
        <ele>959</ele>
        <time>2023-09-27T10:07:03+02:00</time>
      </trkpt>
      <trkpt lat="42.97748" lon="0.68474">
        <ele>954</ele>
        <time>2023-09-27T10:07:24+02:00</time>
      </trkpt>
      <trkpt lat="42.9773" lon="0.68464">
        <ele>949</ele>
        <time>2023-09-27T10:07:43+02:00</time>
      </trkpt>
      <trkpt lat="42.97713" lon="0.68461">
        <ele>944</ele>
        <time>2023-09-27T10:08:10+02:00</time>
      </trkpt>
      <trkpt lat="42.97695" lon="0.68471">
        <ele>936</ele>
        <time>2023-09-27T10:08:45+02:00</time>
      </trkpt>
      <trkpt lat="42.97677" lon="0.68473">
        <ele>938</ele>
        <time>2023-09-27T10:09:11+02:00</time>
      </trkpt>
      <trkpt lat="42.97657" lon="0.68475">
        <ele>943</ele>
        <time>2023-09-27T10:09:40+02:00</time>
      </trkpt>
      <trkpt lat="42.97657" lon="0.68498">
        <ele>943</ele>
        <time>2023-09-27T10:10:12+02:00</time>
      </trkpt>
      <trkpt lat="42.97647" lon="0.68519">
        <ele>945</ele>
        <time>2023-09-27T10:10:55+02:00</time>
      </trkpt>
      <trkpt lat="42.97633" lon="0.68534">
        <ele>948</ele>
        <time>2023-09-27T10:11:31+02:00</time>
      </trkpt>
      <trkpt lat="42.97618" lon="0.68549">
        <ele>951</ele>
        <time>2023-09-27T10:12:02+02:00</time>
      </trkpt>
      <trkpt lat="42.97599" lon="0.68555">
        <ele>959</ele>
        <time>2023-09-27T10:12:38+02:00</time>
      </trkpt>
      <trkpt lat="42.97583" lon="0.68545">
        <ele>968</ele>
        <time>2023-09-27T10:13:07+02:00</time>
      </trkpt>
      <trkpt lat="42.97567" lon="0.68533">
        <ele>972</ele>
        <time>2023-09-27T10:13:39+02:00</time>
      </trkpt>
      <trkpt lat="42.97549" lon="0.68527">
        <ele>977</ele>
        <time>2023-09-27T10:14:08+02:00</time>
      </trkpt>
      <trkpt lat="42.9753" lon="0.68524">
        <ele>981</ele>
        <time>2023-09-27T10:14:44+02:00</time>
      </trkpt>
      <trkpt lat="42.97512" lon="0.68517">
        <ele>984</ele>
        <time>2023-09-27T10:15:17+02:00</time>
      </trkpt>
      <trkpt lat="42.97494" lon="0.68523">
        <ele>987</ele>
        <time>2023-09-27T10:15:58+02:00</time>
      </trkpt>
      <trkpt lat="42.97478" lon="0.68534">
        <ele>989</ele>
        <time>2023-09-27T10:16:24+02:00</time>
      </trkpt>
      <trkpt lat="42.9746" lon="0.68544">
        <ele>990</ele>
        <time>2023-09-27T10:16:49+02:00</time>
      </trkpt>
      <trkpt lat="42.97441" lon="0.68546">
        <ele>990</ele>
        <time>2023-09-27T10:17:13+02:00</time>
      </trkpt>
      <trkpt lat="42.97422" lon="0.68541">
        <ele>994</ele>
        <time>2023-09-27T10:17:38+02:00</time>
      </trkpt>
      <trkpt lat="42.97403" lon="0.68542">
        <ele>999</ele>
        <time>2023-09-27T10:18:06+02:00</time>
      </trkpt>
      <trkpt lat="42.97385" lon="0.68539">
        <ele>1004</ele>
        <time>2023-09-27T10:18:27+02:00</time>
      </trkpt>
      <trkpt lat="42.97367" lon="0.68537">
        <ele>1008</ele>
        <time>2023-09-27T10:18:45+02:00</time>
      </trkpt>
      <trkpt lat="42.97349" lon="0.6853">
        <ele>1010</ele>
        <time>2023-09-27T10:19:09+02:00</time>
      </trkpt>
      <trkpt lat="42.97332" lon="0.6852">
        <ele>1013</ele>
        <time>2023-09-27T10:19:35+02:00</time>
      </trkpt>
      <trkpt lat="42.97314" lon="0.68511">
        <ele>1017</ele>
        <time>2023-09-27T10:19:53+02:00</time>
      </trkpt>
      <trkpt lat="42.97295" lon="0.68506">
        <ele>1023</ele>
        <time>2023-09-27T10:20:15+02:00</time>
      </trkpt>
      <trkpt lat="42.97277" lon="0.68498">
        <ele>1028</ele>
        <time>2023-09-27T10:20:40+02:00</time>
      </trkpt>
      <trkpt lat="42.97259" lon="0.68497">
        <ele>1034</ele>
        <time>2023-09-27T10:21:06+02:00</time>
      </trkpt>
      <trkpt lat="42.97242" lon="0.68494">
        <ele>1039</ele>
        <time>2023-09-27T10:21:41+02:00</time>
      </trkpt>
      <trkpt lat="42.97223" lon="0.68492">
        <ele>1046</ele>
        <time>2023-09-27T10:22:22+02:00</time>
      </trkpt>
      <trkpt lat="42.97206" lon="0.68483">
        <ele>1049</ele>
        <time>2023-09-27T10:23:00+02:00</time>
      </trkpt>
      <trkpt lat="42.97188" lon="0.68481">
        <ele>1053</ele>
        <time>2023-09-27T10:23:31+02:00</time>
      </trkpt>
      <trkpt lat="42.9717" lon="0.6849">
        <ele>1058</ele>
        <time>2023-09-27T10:23:57+02:00</time>
      </trkpt>
      <trkpt lat="42.97156" lon="0.68506">
        <ele>1063</ele>
        <time>2023-09-27T10:24:31+02:00</time>
      </trkpt>
      <trkpt lat="42.97144" lon="0.68525">
        <ele>1068</ele>
        <time>2023-09-27T10:25:00+02:00</time>
      </trkpt>
      <trkpt lat="42.9713" lon="0.68541">
        <ele>1074</ele>
        <time>2023-09-27T10:25:31+02:00</time>
      </trkpt>
      <trkpt lat="42.97114" lon="0.68553">
        <ele>1080</ele>
        <time>2023-09-27T10:26:03+02:00</time>
      </trkpt>
      <trkpt lat="42.97095" lon="0.68557">
        <ele>1085</ele>
        <time>2023-09-27T10:26:32+02:00</time>
      </trkpt>
      <trkpt lat="42.97077" lon="0.68553">
        <ele>1088</ele>
        <time>2023-09-27T10:27:13+02:00</time>
      </trkpt>
      <trkpt lat="42.97059" lon="0.6856">
        <ele>1092</ele>
        <time>2023-09-27T10:27:46+02:00</time>
      </trkpt>
      <trkpt lat="42.97042" lon="0.68565">
        <ele>1095</ele>
        <time>2023-09-27T10:28:24+02:00</time>
      </trkpt>
      <trkpt lat="42.97024" lon="0.68568">
        <ele>1098</ele>
        <time>2023-09-27T10:28:58+02:00</time>
      </trkpt>
      <trkpt lat="42.97016" lon="0.68584">
        <ele>1103</ele>
        <time>2023-09-27T10:29:31+02:00</time>
      </trkpt>
      <trkpt lat="42.97011" lon="0.68605">
        <ele>1108</ele>
        <time>2023-09-27T10:30:13+02:00</time>
      </trkpt>
      <trkpt lat="42.96995" lon="0.68624">
        <ele>1114</ele>
        <time>2023-09-27T10:39:29+02:00</time>
      </trkpt>
      <trkpt lat="42.96982" lon="0.68642">
        <ele>1119</ele>
        <time>2023-09-27T10:39:47+02:00</time>
      </trkpt>
      <trkpt lat="42.96971" lon="0.68663">
        <ele>1124</ele>
        <time>2023-09-27T10:40:10+02:00</time>
      </trkpt>
      <trkpt lat="42.96963" lon="0.68685">
        <ele>1128</ele>
        <time>2023-09-27T10:40:36+02:00</time>
      </trkpt>
      <trkpt lat="42.96964" lon="0.6871">
        <ele>1131</ele>
        <time>2023-09-27T10:41:02+02:00</time>
      </trkpt>
      <trkpt lat="42.96966" lon="0.68736">
        <ele>1133</ele>
        <time>2023-09-27T10:41:28+02:00</time>
      </trkpt>
      <trkpt lat="42.96965" lon="0.68762">
        <ele>1136</ele>
        <time>2023-09-27T10:41:58+02:00</time>
      </trkpt>
      <trkpt lat="42.96959" lon="0.68784">
        <ele>1140</ele>
        <time>2023-09-27T10:42:30+02:00</time>
      </trkpt>
      <trkpt lat="42.96949" lon="0.68805">
        <ele>1145</ele>
        <time>2023-09-27T10:43:06+02:00</time>
      </trkpt>
      <trkpt lat="42.96939" lon="0.68826">
        <ele>1151</ele>
        <time>2023-09-27T10:43:45+02:00</time>
      </trkpt>
      <trkpt lat="42.9693" lon="0.68848">
        <ele>1156</ele>
        <time>2023-09-27T10:44:20+02:00</time>
      </trkpt>
      <trkpt lat="42.9692" lon="0.68869">
        <ele>1161</ele>
        <time>2023-09-27T10:44:59+02:00</time>
      </trkpt>
      <trkpt lat="42.96906" lon="0.68885">
        <ele>1166</ele>
        <time>2023-09-27T10:45:33+02:00</time>
      </trkpt>
      <trkpt lat="42.96892" lon="0.68902">
        <ele>1173</ele>
        <time>2023-09-27T10:46:03+02:00</time>
      </trkpt>
      <trkpt lat="42.96881" lon="0.68921">
        <ele>1180</ele>
        <time>2023-09-27T10:46:43+02:00</time>
      </trkpt>
      <trkpt lat="42.96872" lon="0.68938">
        <ele>1186</ele>
        <time>2023-09-27T10:47:21+02:00</time>
      </trkpt>
      <trkpt lat="42.96866" lon="0.68961">
        <ele>1193</ele>
        <time>2023-09-27T10:47:58+02:00</time>
      </trkpt>
      <trkpt lat="42.96863" lon="0.68986">
        <ele>1200</ele>
        <time>2023-09-27T10:48:37+02:00</time>
      </trkpt>
      <trkpt lat="42.96866" lon="0.69011">
        <ele>1205</ele>
        <time>2023-09-27T10:49:04+02:00</time>
      </trkpt>
      <trkpt lat="42.9686" lon="0.69031">
        <ele>1211</ele>
        <time>2023-09-27T10:49:34+02:00</time>
      </trkpt>
      <trkpt lat="42.96847" lon="0.6905">
        <ele>1219</ele>
        <time>2023-09-27T10:50:07+02:00</time>
      </trkpt>
      <trkpt lat="42.9683" lon="0.69048">
        <ele>1227</ele>
        <time>2023-09-27T10:50:40+02:00</time>
      </trkpt>
      <trkpt lat="42.96813" lon="0.69047">
        <ele>1233</ele>
        <time>2023-09-27T10:57:26+02:00</time>
      </trkpt>
      <trkpt lat="42.96815" lon="0.69067">
        <ele>1231</ele>
        <time>2023-09-27T10:58:30+02:00</time>
      </trkpt>
      <trkpt lat="42.96808" lon="0.69091">
        <ele>1229</ele>
        <time>2023-09-27T10:58:49+02:00</time>
      </trkpt>
      <trkpt lat="42.96792" lon="0.69104">
        <ele>1231</ele>
        <time>2023-09-27T10:59:05+02:00</time>
      </trkpt>
      <trkpt lat="42.96774" lon="0.69112">
        <ele>1233</ele>
        <time>2023-09-27T10:59:29+02:00</time>
      </trkpt>
      <trkpt lat="42.96756" lon="0.69119">
        <ele>1232</ele>
        <time>2023-09-27T10:59:46+02:00</time>
      </trkpt>
      <trkpt lat="42.96737" lon="0.69121">
        <ele>1232</ele>
        <time>2023-09-27T11:00:05+02:00</time>
      </trkpt>
      <trkpt lat="42.96718" lon="0.69117">
        <ele>1233</ele>
        <time>2023-09-27T11:00:25+02:00</time>
      </trkpt>
      <trkpt lat="42.96699" lon="0.69109">
        <ele>1237</ele>
        <time>2023-09-27T11:00:46+02:00</time>
      </trkpt>
      <trkpt lat="42.96682" lon="0.69101">
        <ele>1240</ele>
        <time>2023-09-27T11:01:05+02:00</time>
      </trkpt>
      <trkpt lat="42.96663" lon="0.69098">
        <ele>1241</ele>
        <time>2023-09-27T11:01:24+02:00</time>
      </trkpt>
      <trkpt lat="42.96644" lon="0.69096">
        <ele>1242</ele>
        <time>2023-09-27T11:01:42+02:00</time>
      </trkpt>
      <trkpt lat="42.96625" lon="0.6909">
        <ele>1243</ele>
        <time>2023-09-27T11:02:02+02:00</time>
      </trkpt>
      <trkpt lat="42.96607" lon="0.69091">
        <ele>1243</ele>
        <time>2023-09-27T11:02:21+02:00</time>
      </trkpt>
      <trkpt lat="42.96589" lon="0.69099">
        <ele>1244</ele>
        <time>2023-09-27T11:02:40+02:00</time>
      </trkpt>
      <trkpt lat="42.9657" lon="0.691">
        <ele>1249</ele>
        <time>2023-09-27T11:03:00+02:00</time>
      </trkpt>
      <trkpt lat="42.96551" lon="0.69106">
        <ele>1255</ele>
        <time>2023-09-27T11:03:18+02:00</time>
      </trkpt>
      <trkpt lat="42.96535" lon="0.69119">
        <ele>1260</ele>
        <time>2023-09-27T11:03:39+02:00</time>
      </trkpt>
      <trkpt lat="42.96527" lon="0.69141">
        <ele>1263</ele>
        <time>2023-09-27T11:03:55+02:00</time>
      </trkpt>
      <trkpt lat="42.96519" lon="0.69165">
        <ele>1262</ele>
        <time>2023-09-27T11:04:13+02:00</time>
      </trkpt>
      <trkpt lat="42.96509" lon="0.69187">
        <ele>1258</ele>
        <time>2023-09-27T11:04:32+02:00</time>
      </trkpt>
      <trkpt lat="42.96493" lon="0.69201">
        <ele>1257</ele>
        <time>2023-09-27T11:04:51+02:00</time>
      </trkpt>
      <trkpt lat="42.96475" lon="0.69207">
        <ele>1259</ele>
        <time>2023-09-27T11:05:10+02:00</time>
      </trkpt>
      <trkpt lat="42.96458" lon="0.6922">
        <ele>1260</ele>
        <time>2023-09-27T11:05:29+02:00</time>
      </trkpt>
      <trkpt lat="42.96445" lon="0.69239">
        <ele>1258</ele>
        <time>2023-09-27T11:06:33+02:00</time>
      </trkpt>
      <trkpt lat="42.96429" lon="0.69251">
        <ele>1258</ele>
        <time>2023-09-27T11:07:12+02:00</time>
      </trkpt>
      <trkpt lat="42.96411" lon="0.6926">
        <ele>1259</ele>
        <time>2023-09-27T11:07:32+02:00</time>
      </trkpt>
      <trkpt lat="42.96392" lon="0.69265">
        <ele>1262</ele>
        <time>2023-09-27T11:07:50+02:00</time>
      </trkpt>
      <trkpt lat="42.96374" lon="0.69274">
        <ele>1263</ele>
        <time>2023-09-27T11:08:16+02:00</time>
      </trkpt>
      <trkpt lat="42.96366" lon="0.69279">
        <ele>1264</ele>
        <time>2023-09-27T11:08:34+02:00</time>
      </trkpt>
      <trkpt lat="42.96347" lon="0.69283">
        <ele>1269</ele>
        <time>2023-09-27T11:08:57+02:00</time>
      </trkpt>
      <trkpt lat="42.96338" lon="0.69288">
        <ele>1271</ele>
        <time>2023-09-27T11:09:05+02:00</time>
      </trkpt>
      <trkpt lat="42.96335" lon="0.69313">
        <ele>1274</ele>
        <time>2023-09-27T11:09:40+02:00</time>
      </trkpt>
      <trkpt lat="42.96317" lon="0.69314">
        <ele>1285</ele>
        <time>2023-09-27T11:10:57+02:00</time>
      </trkpt>
      <trkpt lat="42.963" lon="0.69309">
        <ele>1294</ele>
        <time>2023-09-27T11:11:50+02:00</time>
      </trkpt>
      <trkpt lat="42.96282" lon="0.69301">
        <ele>1300</ele>
        <time>2023-09-27T11:12:38+02:00</time>
      </trkpt>
      <trkpt lat="42.96264" lon="0.69296">
        <ele>1308</ele>
        <time>2023-09-27T11:13:33+02:00</time>
      </trkpt>
      <trkpt lat="42.96246" lon="0.69292">
        <ele>1315</ele>
        <time>2023-09-27T11:14:40+02:00</time>
      </trkpt>
      <trkpt lat="42.96231" lon="0.69277">
        <ele>1316</ele>
        <time>2023-09-27T11:15:14+02:00</time>
      </trkpt>
      <trkpt lat="42.96212" lon="0.69275">
        <ele>1326</ele>
        <time>2023-09-27T11:16:18+02:00</time>
      </trkpt>
      <trkpt lat="42.96198" lon="0.69259">
        <ele>1323</ele>
        <time>2023-09-27T11:16:55+02:00</time>
      </trkpt>
      <trkpt lat="42.9618" lon="0.69256">
        <ele>1329</ele>
        <time>2023-09-27T11:18:16+02:00</time>
      </trkpt>
      <trkpt lat="42.96165" lon="0.69263">
        <ele>1340</ele>
        <time>2023-09-27T11:18:52+02:00</time>
      </trkpt>
      <trkpt lat="42.96146" lon="0.69273">
        <ele>1351</ele>
        <time>2023-09-27T11:19:58+02:00</time>
      </trkpt>
      <trkpt lat="42.96124" lon="0.6928">
        <ele>1361</ele>
        <time>2023-09-27T11:21:09+02:00</time>
      </trkpt>
      <trkpt lat="42.96107" lon="0.69289">
        <ele>1371</ele>
        <time>2023-09-27T11:21:57+02:00</time>
      </trkpt>
      <trkpt lat="42.96089" lon="0.69295">
        <ele>1377</ele>
        <time>2023-09-27T11:22:41+02:00</time>
      </trkpt>
      <trkpt lat="42.96072" lon="0.69299">
        <ele>1382</ele>
        <time>2023-09-27T11:23:20+02:00</time>
      </trkpt>
      <trkpt lat="42.96054" lon="0.69305">
        <ele>1388</ele>
        <time>2023-09-27T11:24:02+02:00</time>
      </trkpt>
      <trkpt lat="42.96036" lon="0.6931">
        <ele>1392</ele>
        <time>2023-09-27T11:24:35+02:00</time>
      </trkpt>
      <trkpt lat="42.96019" lon="0.69317">
        <ele>1397</ele>
        <time>2023-09-27T11:25:12+02:00</time>
      </trkpt>
      <trkpt lat="42.96" lon="0.69314">
        <ele>1398</ele>
        <time>2023-09-27T11:25:51+02:00</time>
      </trkpt>
      <trkpt lat="42.95983" lon="0.69316">
        <ele>1403</ele>
        <time>2023-09-27T11:26:28+02:00</time>
      </trkpt>
      <trkpt lat="42.95965" lon="0.69314">
        <ele>1405</ele>
        <time>2023-09-27T11:27:09+02:00</time>
      </trkpt>
      <trkpt lat="42.95946" lon="0.69312">
        <ele>1408</ele>
        <time>2023-09-27T11:27:46+02:00</time>
      </trkpt>
      <trkpt lat="42.95928" lon="0.69312">
        <ele>1411</ele>
        <time>2023-09-27T11:28:27+02:00</time>
      </trkpt>
      <trkpt lat="42.95911" lon="0.69318">
        <ele>1417</ele>
        <time>2023-09-27T11:29:13+02:00</time>
      </trkpt>
      <trkpt lat="42.95895" lon="0.69331">
        <ele>1425</ele>
        <time>2023-09-27T11:29:51+02:00</time>
      </trkpt>
      <trkpt lat="42.95876" lon="0.69331">
        <ele>1428</ele>
        <time>2023-09-27T11:30:34+02:00</time>
      </trkpt>
      <trkpt lat="42.95858" lon="0.69333">
        <ele>1431</ele>
        <time>2023-09-27T11:31:07+02:00</time>
      </trkpt>
      <trkpt lat="42.9584" lon="0.69326">
        <ele>1433</ele>
        <time>2023-09-27T11:31:38+02:00</time>
      </trkpt>
      <trkpt lat="42.95832" lon="0.69333">
        <ele>1435</ele>
        <time>2023-09-27T11:32:04+02:00</time>
      </trkpt>
      <trkpt lat="42.95817" lon="0.69343">
        <ele>1444</ele>
        <time>2023-09-27T11:34:38+02:00</time>
      </trkpt>
      <trkpt lat="42.95799" lon="0.69346">
        <ele>1450</ele>
        <time>2023-09-27T11:35:18+02:00</time>
      </trkpt>
      <trkpt lat="42.9578" lon="0.69348">
        <ele>1458</ele>
        <time>2023-09-27T11:36:08+02:00</time>
      </trkpt>
      <trkpt lat="42.95764" lon="0.69361">
        <ele>1470</ele>
        <time>2023-09-27T11:36:49+02:00</time>
      </trkpt>
      <trkpt lat="42.95746" lon="0.69359">
        <ele>1474</ele>
        <time>2023-09-27T11:37:38+02:00</time>
      </trkpt>
      <trkpt lat="42.95728" lon="0.69353">
        <ele>1477</ele>
        <time>2023-09-27T11:38:06+02:00</time>
      </trkpt>
      <trkpt lat="42.95711" lon="0.69344">
        <ele>1479</ele>
        <time>2023-09-27T11:38:38+02:00</time>
      </trkpt>
      <trkpt lat="42.95695" lon="0.69354">
        <ele>1484</ele>
        <time>2023-09-27T11:39:10+02:00</time>
      </trkpt>
      <trkpt lat="42.95677" lon="0.69357">
        <ele>1488</ele>
        <time>2023-09-27T11:39:51+02:00</time>
      </trkpt>
      <trkpt lat="42.9566" lon="0.69357">
        <ele>1493</ele>
        <time>2023-09-27T11:40:29+02:00</time>
      </trkpt>
      <trkpt lat="42.95641" lon="0.69361">
        <ele>1498</ele>
        <time>2023-09-27T11:41:10+02:00</time>
      </trkpt>
      <trkpt lat="42.95623" lon="0.69366">
        <ele>1504</ele>
        <time>2023-09-27T11:42:11+02:00</time>
      </trkpt>
      <trkpt lat="42.95605" lon="0.69372">
        <ele>1510</ele>
        <time>2023-09-27T11:42:45+02:00</time>
      </trkpt>
      <trkpt lat="42.95587" lon="0.69376">
        <ele>1515</ele>
        <time>2023-09-27T11:43:14+02:00</time>
      </trkpt>
      <trkpt lat="42.95571" lon="0.69387">
        <ele>1519</ele>
        <time>2023-09-27T11:43:51+02:00</time>
      </trkpt>
      <trkpt lat="42.95555" lon="0.69396">
        <ele>1525</ele>
        <time>2023-09-27T11:44:32+02:00</time>
      </trkpt>
      <trkpt lat="42.95537" lon="0.69402">
        <ele>1532</ele>
        <time>2023-09-27T11:48:06+02:00</time>
      </trkpt>
      <trkpt lat="42.95518" lon="0.69401">
        <ele>1538</ele>
        <time>2023-09-27T11:48:42+02:00</time>
      </trkpt>
      <trkpt lat="42.955" lon="0.69396">
        <ele>1542</ele>
        <time>2023-09-27T11:49:13+02:00</time>
      </trkpt>
      <trkpt lat="42.95493" lon="0.6938">
        <ele>1544</ele>
        <time>2023-09-27T11:49:39+02:00</time>
      </trkpt>
      <trkpt lat="42.95484" lon="0.69352">
        <ele>1548</ele>
        <time>2023-09-27T11:50:41+02:00</time>
      </trkpt>
      <trkpt lat="42.95471" lon="0.6937">
        <ele>1551</ele>
      </trkpt>
      <trkpt lat="42.95458" lon="0.69389">
        <ele>1552</ele>
      </trkpt>
      <trkpt lat="42.95441" lon="0.6941">
        <ele>1559</ele>
        <time>2023-09-27T12:06:31+02:00</time>
      </trkpt>
      <trkpt lat="42.95428" lon="0.69426">
        <ele>1567</ele>
        <time>2023-09-27T12:07:28+02:00</time>
      </trkpt>
      <trkpt lat="42.95415" lon="0.69445">
        <ele>1577</ele>
        <time>2023-09-27T12:08:10+02:00</time>
      </trkpt>
      <trkpt lat="42.95403" lon="0.69462">
        <ele>1586</ele>
        <time>2023-09-27T12:09:12+02:00</time>
      </trkpt>
      <trkpt lat="42.9539" lon="0.69479">
        <ele>1592</ele>
        <time>2023-09-27T12:10:05+02:00</time>
      </trkpt>
      <trkpt lat="42.95377" lon="0.69497">
        <ele>1600</ele>
        <time>2023-09-27T12:10:55+02:00</time>
      </trkpt>
      <trkpt lat="42.95365" lon="0.69516">
        <ele>1609</ele>
        <time>2023-09-27T12:11:41+02:00</time>
      </trkpt>
      <trkpt lat="42.95355" lon="0.69537">
        <ele>1617</ele>
        <time>2023-09-27T12:12:37+02:00</time>
      </trkpt>
      <trkpt lat="42.95353" lon="0.69566">
        <ele>1629</ele>
      </trkpt>
      <trkpt lat="42.95357" lon="0.69591">
        <ele>1639</ele>
      </trkpt>
      <trkpt lat="42.95368" lon="0.69608">
        <ele>1644</ele>
      </trkpt>
      <trkpt lat="42.95383" lon="0.69623">
        <ele>1647</ele>
      </trkpt>
      <trkpt lat="42.954" lon="0.69627">
        <ele>1647</ele>
      </trkpt>
      <trkpt lat="42.95416" lon="0.6963">
        <ele>1649</ele>
      </trkpt>
      <trkpt lat="42.95435" lon="0.69638">
        <ele>1647</ele>
      </trkpt>
      <trkpt lat="42.95441" lon="0.69667">
        <ele>1644</ele>
      </trkpt>
      <trkpt lat="42.95425" lon="0.69679">
        <ele>1650</ele>
      </trkpt>
      <trkpt lat="42.95409" lon="0.69692">
        <ele>1656</ele>
      </trkpt>
      <trkpt lat="42.95393" lon="0.69704">
        <ele>1663</ele>
      </trkpt>
      <trkpt lat="42.95377" lon="0.69715">
        <ele>1671</ele>
      </trkpt>
      <trkpt lat="42.95362" lon="0.69726">
        <ele>1679</ele>
      </trkpt>
      <trkpt lat="42.95347" lon="0.69736">
        <ele>1686</ele>
      </trkpt>
      <trkpt lat="42.9533" lon="0.69746">
        <ele>1694</ele>
      </trkpt>
      <trkpt lat="42.95313" lon="0.69752">
        <ele>1701</ele>
      </trkpt>
      <trkpt lat="42.95291" lon="0.69749">
        <ele>1709</ele>
      </trkpt>
      <trkpt lat="42.95275" lon="0.69763">
        <ele>1718</ele>
      </trkpt>
      <trkpt lat="42.95257" lon="0.69775">
        <ele>1728</ele>
      </trkpt>
      <trkpt lat="42.9524" lon="0.69782">
        <ele>1735</ele>
      </trkpt>
      <trkpt lat="42.95227" lon="0.69796">
        <ele>1741</ele>
      </trkpt>
      <trkpt lat="42.95215" lon="0.69814">
        <ele>1744</ele>
      </trkpt>
      <trkpt lat="42.95193" lon="0.69823">
        <ele>1745</ele>
      </trkpt>
      <trkpt lat="42.95177" lon="0.69821">
        <ele>1747</ele>
      </trkpt>
      <trkpt lat="42.95163" lon="0.69829">
        <ele>1748</ele>
      </trkpt>
      <trkpt lat="42.9515" lon="0.69841">
        <ele>1749</ele>
      </trkpt>
      <trkpt lat="42.95133" lon="0.69854">
        <ele>1754</ele>
      </trkpt>
      <trkpt lat="42.95112" lon="0.69865">
        <ele>1760</ele>
      </trkpt>
      <trkpt lat="42.95097" lon="0.69872">
        <ele>1763</ele>
      </trkpt>
      <trkpt lat="42.95083" lon="0.69889">
        <ele>1768</ele>
      </trkpt>
      <trkpt lat="42.95063" lon="0.69893">
        <ele>1769</ele>
      </trkpt>
      <trkpt lat="42.95041" lon="0.69891">
        <ele>1764</ele>
      </trkpt>
      <trkpt lat="42.95027" lon="0.69873">
        <ele>1769</ele>
      </trkpt>
      <trkpt lat="42.95048" lon="0.69869">
        <ele>1773</ele>
      </trkpt>
      <trkpt lat="42.95057" lon="0.69849">
        <ele>1771</ele>
      </trkpt>
      <trkpt lat="42.95066" lon="0.69824">
        <ele>1760</ele>
      </trkpt>
      <trkpt lat="42.95055" lon="0.6981">
        <ele>1758</ele>
      </trkpt>
      <trkpt lat="42.95042" lon="0.69796">
        <ele>1754</ele>
      </trkpt>
      <trkpt lat="42.95029" lon="0.69781">
        <ele>1748</ele>
      </trkpt>
      <trkpt lat="42.95016" lon="0.69766">
        <ele>1743</ele>
      </trkpt>
      <trkpt lat="42.94996" lon="0.69752">
        <ele>1736</ele>
      </trkpt>
      <trkpt lat="42.94977" lon="0.69741">
        <ele>1729</ele>
      </trkpt>
      <trkpt lat="42.94957" lon="0.69731">
        <ele>1720</ele>
      </trkpt>
      <trkpt lat="42.94939" lon="0.69718">
        <ele>1715</ele>
      </trkpt>
      <trkpt lat="42.94922" lon="0.69706">
        <ele>1712</ele>
      </trkpt>
      <trkpt lat="42.94908" lon="0.69669">
        <ele>1724</ele>
        <time>2023-09-27T13:20:13+02:00</time>
      </trkpt>
      <trkpt lat="42.94893" lon="0.69656">
        <ele>1728</ele>
        <time>2023-09-27T13:20:28+02:00</time>
      </trkpt>
      <trkpt lat="42.94877" lon="0.69641">
        <ele>1734</ele>
        <time>2023-09-27T13:20:44+02:00</time>
      </trkpt>
      <trkpt lat="42.9486" lon="0.69627">
        <ele>1736</ele>
      </trkpt>
      <trkpt lat="42.94855" lon="0.69622">
        <ele>1723</ele>
        <time>2023-09-27T13:20:59+02:00</time>
      </trkpt>
      <trkpt lat="42.94889" lon="0.69649">
        <ele>1731</ele>
        <time>2023-09-27T13:21:35+02:00</time>
      </trkpt>
      <trkpt lat="42.94898" lon="0.69658">
        <ele>1727</ele>
      </trkpt>
      <trkpt lat="42.94912" lon="0.69679">
        <ele>1720</ele>
      </trkpt>
      <trkpt lat="42.9493" lon="0.69687">
        <ele>1718</ele>
      </trkpt>
      <trkpt lat="42.94942" lon="0.69673">
        <ele>1719</ele>
        <time>2023-09-27T13:22:30+02:00</time>
      </trkpt>
      <trkpt lat="42.94959" lon="0.69669">
        <ele>1715</ele>
      </trkpt>
      <trkpt lat="42.94981" lon="0.69661">
        <ele>1709</ele>
      </trkpt>
      <trkpt lat="42.94997" lon="0.69655">
        <ele>1704</ele>
      </trkpt>
      <trkpt lat="42.95014" lon="0.69638">
        <ele>1696</ele>
      </trkpt>
      <trkpt lat="42.95029" lon="0.69631">
        <ele>1691</ele>
      </trkpt>
      <trkpt lat="42.9504" lon="0.69625">
        <ele>1687</ele>
      </trkpt>
      <trkpt lat="42.9505" lon="0.69619">
        <ele>1683</ele>
        <time>2023-09-27T13:42:21+02:00</time>
      </trkpt>
      <trkpt lat="42.95063" lon="0.69614">
        <ele>1678</ele>
      </trkpt>
      <trkpt lat="42.95083" lon="0.69604">
        <ele>1670</ele>
      </trkpt>
      <trkpt lat="42.95098" lon="0.696">
        <ele>1666</ele>
      </trkpt>
      <trkpt lat="42.95115" lon="0.69597">
        <ele>1663</ele>
        <time>2023-09-27T13:43:50+02:00</time>
      </trkpt>
      <trkpt lat="42.95133" lon="0.69586">
        <ele>1656</ele>
        <time>2023-09-27T13:44:32+02:00</time>
      </trkpt>
      <trkpt lat="42.95147" lon="0.69571">
        <ele>1647</ele>
        <time>2023-09-27T13:45:02+02:00</time>
      </trkpt>
      <trkpt lat="42.95165" lon="0.69564">
        <ele>1641</ele>
        <time>2023-09-27T13:45:26+02:00</time>
      </trkpt>
      <trkpt lat="42.95183" lon="0.69555">
        <ele>1635</ele>
        <time>2023-09-27T13:45:55+02:00</time>
      </trkpt>
      <trkpt lat="42.95198" lon="0.69541">
        <ele>1628</ele>
        <time>2023-09-27T13:46:22+02:00</time>
      </trkpt>
      <trkpt lat="42.95215" lon="0.6953">
        <ele>1622</ele>
        <time>2023-09-27T13:46:50+02:00</time>
      </trkpt>
      <trkpt lat="42.9523" lon="0.69516">
        <ele>1616</ele>
        <time>2023-09-27T13:47:15+02:00</time>
      </trkpt>
      <trkpt lat="42.95247" lon="0.69504">
        <ele>1610</ele>
        <time>2023-09-27T13:47:39+02:00</time>
      </trkpt>
      <trkpt lat="42.95265" lon="0.69489">
        <ele>1603</ele>
      </trkpt>
      <trkpt lat="42.95284" lon="0.69477">
        <ele>1597</ele>
      </trkpt>
      <trkpt lat="42.95302" lon="0.69465">
        <ele>1592</ele>
      </trkpt>
      <trkpt lat="42.95321" lon="0.69453">
        <ele>1586</ele>
      </trkpt>
      <trkpt lat="42.95341" lon="0.69442">
        <ele>1581</ele>
      </trkpt>
      <trkpt lat="42.95362" lon="0.69433">
        <ele>1577</ele>
      </trkpt>
      <trkpt lat="42.9538" lon="0.69426">
        <ele>1574</ele>
      </trkpt>
      <trkpt lat="42.95395" lon="0.69423">
        <ele>1572</ele>
      </trkpt>
      <trkpt lat="42.95409" lon="0.69404">
        <ele>1564</ele>
      </trkpt>
      <trkpt lat="42.95416" lon="0.69386">
        <ele>1559</ele>
      </trkpt>
      <trkpt lat="42.95428" lon="0.69366">
        <ele>1557</ele>
      </trkpt>
      <trkpt lat="42.95442" lon="0.69348">
        <ele>1554</ele>
      </trkpt>
      <trkpt lat="42.95453" lon="0.69344">
        <ele>1552</ele>
      </trkpt>
      <trkpt lat="42.95473" lon="0.69339">
        <ele>1550</ele>
      </trkpt>
      <trkpt lat="42.95477" lon="0.69318">
        <ele>1546</ele>
      </trkpt>
      <trkpt lat="42.95489" lon="0.69294">
        <ele>1540</ele>
      </trkpt>
      <trkpt lat="42.95496" lon="0.69278">
        <ele>1535</ele>
      </trkpt>
      <trkpt lat="42.95505" lon="0.69263">
        <ele>1530</ele>
      </trkpt>
      <trkpt lat="42.95515" lon="0.69248">
        <ele>1525</ele>
      </trkpt>
      <trkpt lat="42.95531" lon="0.69236">
        <ele>1521</ele>
      </trkpt>
      <trkpt lat="42.95547" lon="0.69224">
        <ele>1516</ele>
        <time>2023-09-27T13:48:04+02:00</time>
      </trkpt>
      <trkpt lat="42.95558" lon="0.69207">
        <ele>1514</ele>
        <time>2023-09-27T13:48:29+02:00</time>
      </trkpt>
      <trkpt lat="42.95572" lon="0.69187">
        <ele>1513</ele>
        <time>2023-09-27T13:49:06+02:00</time>
      </trkpt>
      <trkpt lat="42.95591" lon="0.69178">
        <ele>1513</ele>
        <time>2023-09-27T13:49:32+02:00</time>
      </trkpt>
      <trkpt lat="42.95607" lon="0.69169">
        <ele>1514</ele>
        <time>2023-09-27T13:49:54+02:00</time>
      </trkpt>
      <trkpt lat="42.95621" lon="0.69164">
        <ele>1516</ele>
        <time>2023-09-27T13:50:14+02:00</time>
      </trkpt>
      <trkpt lat="42.95636" lon="0.69154">
        <ele>1520</ele>
      </trkpt>
      <trkpt lat="42.95637" lon="0.69131">
        <ele>1526</ele>
      </trkpt>
      <trkpt lat="42.95638" lon="0.69107">
        <ele>1528</ele>
      </trkpt>
      <trkpt lat="42.95649" lon="0.69092">
        <ele>1527</ele>
      </trkpt>
      <trkpt lat="42.95668" lon="0.69078">
        <ele>1525</ele>
      </trkpt>
      <trkpt lat="42.95684" lon="0.69078">
        <ele>1519</ele>
      </trkpt>
      <trkpt lat="42.95702" lon="0.69077">
        <ele>1513</ele>
        <time>2023-09-27T14:14:17+02:00</time>
      </trkpt>
      <trkpt lat="42.95719" lon="0.69068">
        <ele>1514</ele>
        <time>2023-09-27T14:14:35+02:00</time>
      </trkpt>
      <trkpt lat="42.95727" lon="0.6906">
        <ele>1517</ele>
        <time>2023-09-27T14:14:44+02:00</time>
      </trkpt>
      <trkpt lat="42.95736" lon="0.69042">
        <ele>1522</ele>
        <time>2023-09-27T14:15:15+02:00</time>
      </trkpt>
      <trkpt lat="42.95737" lon="0.69012">
        <ele>1522</ele>
      </trkpt>
      <trkpt lat="42.95754" lon="0.6902">
        <ele>1517</ele>
        <time>2023-09-27T14:15:39+02:00</time>
      </trkpt>
      <trkpt lat="42.95765" lon="0.69041">
        <ele>1513</ele>
        <time>2023-09-27T14:20:01+02:00</time>
      </trkpt>
      <trkpt lat="42.95782" lon="0.69048">
        <ele>1507</ele>
        <time>2023-09-27T14:20:23+02:00</time>
      </trkpt>
      <trkpt lat="42.95801" lon="0.6905">
        <ele>1503</ele>
        <time>2023-09-27T14:20:44+02:00</time>
      </trkpt>
      <trkpt lat="42.9582" lon="0.69053">
        <ele>1499</ele>
        <time>2023-09-27T14:21:05+02:00</time>
      </trkpt>
      <trkpt lat="42.95838" lon="0.69055">
        <ele>1494</ele>
        <time>2023-09-27T14:21:27+02:00</time>
      </trkpt>
      <trkpt lat="42.95846" lon="0.69026">
        <ele>1496</ele>
        <time>2023-09-27T14:22:02+02:00</time>
      </trkpt>
      <trkpt lat="42.95833" lon="0.69008">
        <ele>1495</ele>
        <time>2023-09-27T14:22:23+02:00</time>
      </trkpt>
      <trkpt lat="42.95821" lon="0.68988">
        <ele>1492</ele>
        <time>2023-09-27T14:22:43+02:00</time>
      </trkpt>
      <trkpt lat="42.9581" lon="0.68967">
        <ele>1487</ele>
        <time>2023-09-27T14:23:06+02:00</time>
      </trkpt>
      <trkpt lat="42.95798" lon="0.68947">
        <ele>1482</ele>
        <time>2023-09-27T14:23:27+02:00</time>
      </trkpt>
      <trkpt lat="42.95787" lon="0.68927">
        <ele>1478</ele>
        <time>2023-09-27T14:23:49+02:00</time>
      </trkpt>
      <trkpt lat="42.95777" lon="0.68904">
        <ele>1473</ele>
        <time>2023-09-27T14:24:13+02:00</time>
      </trkpt>
      <trkpt lat="42.95771" lon="0.6888">
        <ele>1467</ele>
        <time>2023-09-27T14:24:33+02:00</time>
      </trkpt>
      <trkpt lat="42.95764" lon="0.68857">
        <ele>1463</ele>
        <time>2023-09-27T14:24:57+02:00</time>
      </trkpt>
      <trkpt lat="42.95766" lon="0.68832">
        <ele>1453</ele>
        <time>2023-09-27T14:25:22+02:00</time>
      </trkpt>
      <trkpt lat="42.95762" lon="0.68809">
        <ele>1447</ele>
        <time>2023-09-27T14:25:52+02:00</time>
      </trkpt>
      <trkpt lat="42.95763" lon="0.68779">
        <ele>1438</ele>
        <time>2023-09-27T14:26:14+02:00</time>
      </trkpt>
      <trkpt lat="42.95755" lon="0.68759">
        <ele>1439</ele>
        <time>2023-09-27T14:26:38+02:00</time>
      </trkpt>
      <trkpt lat="42.95756" lon="0.68746">
        <ele>1437</ele>
        <time>2023-09-27T14:26:49+02:00</time>
      </trkpt>
      <trkpt lat="42.95748" lon="0.68723">
        <ele>1440</ele>
        <time>2023-09-27T14:27:11+02:00</time>
      </trkpt>
      <trkpt lat="42.95752" lon="0.68699">
        <ele>1435</ele>
        <time>2023-09-27T14:27:34+02:00</time>
      </trkpt>
      <trkpt lat="42.95764" lon="0.68679">
        <ele>1429</ele>
        <time>2023-09-27T14:27:57+02:00</time>
      </trkpt>
      <trkpt lat="42.95775" lon="0.68658">
        <ele>1423</ele>
        <time>2023-09-27T14:29:17+02:00</time>
      </trkpt>
      <trkpt lat="42.95784" lon="0.68636">
        <ele>1417</ele>
        <time>2023-09-27T14:29:38+02:00</time>
      </trkpt>
      <trkpt lat="42.95785" lon="0.68612">
        <ele>1415</ele>
        <time>2023-09-27T14:29:59+02:00</time>
      </trkpt>
      <trkpt lat="42.95771" lon="0.68595">
        <ele>1414</ele>
        <time>2023-09-27T14:30:23+02:00</time>
      </trkpt>
      <trkpt lat="42.95762" lon="0.68573">
        <ele>1408</ele>
        <time>2023-09-27T14:30:48+02:00</time>
      </trkpt>
      <trkpt lat="42.95748" lon="0.68556">
        <ele>1405</ele>
        <time>2023-09-27T14:31:08+02:00</time>
      </trkpt>
      <trkpt lat="42.95764" lon="0.68537">
        <ele>1395</ele>
        <time>2023-09-27T14:38:51+02:00</time>
      </trkpt>
      <trkpt lat="42.95783" lon="0.6854">
        <ele>1393</ele>
        <time>2023-09-27T14:40:07+02:00</time>
      </trkpt>
      <trkpt lat="42.95802" lon="0.68544">
        <ele>1392</ele>
        <time>2023-09-27T14:40:25+02:00</time>
      </trkpt>
      <trkpt lat="42.95821" lon="0.68544">
        <ele>1390</ele>
        <time>2023-09-27T14:40:43+02:00</time>
      </trkpt>
      <trkpt lat="42.9584" lon="0.68549">
        <ele>1390</ele>
        <time>2023-09-27T14:40:59+02:00</time>
      </trkpt>
      <trkpt lat="42.95856" lon="0.68561">
        <ele>1388</ele>
        <time>2023-09-27T14:41:15+02:00</time>
      </trkpt>
      <trkpt lat="42.95873" lon="0.68573">
        <ele>1384</ele>
        <time>2023-09-27T14:41:32+02:00</time>
      </trkpt>
      <trkpt lat="42.95881" lon="0.68595">
        <ele>1380</ele>
        <time>2023-09-27T14:41:50+02:00</time>
      </trkpt>
      <trkpt lat="42.95885" lon="0.6862">
        <ele>1376</ele>
        <time>2023-09-27T14:42:10+02:00</time>
      </trkpt>
      <trkpt lat="42.9589" lon="0.68644">
        <ele>1370</ele>
        <time>2023-09-27T14:42:42+02:00</time>
      </trkpt>
      <trkpt lat="42.95901" lon="0.68665">
        <ele>1362</ele>
        <time>2023-09-27T14:43:04+02:00</time>
      </trkpt>
      <trkpt lat="42.95902" lon="0.6869">
        <ele>1365</ele>
        <time>2023-09-27T14:43:32+02:00</time>
      </trkpt>
      <trkpt lat="42.95917" lon="0.68695">
        <ele>1362</ele>
        <time>2023-09-27T14:43:52+02:00</time>
      </trkpt>
      <trkpt lat="42.95935" lon="0.6869">
        <ele>1356</ele>
        <time>2023-09-27T14:44:11+02:00</time>
      </trkpt>
      <trkpt lat="42.95953" lon="0.68681">
        <ele>1350</ele>
        <time>2023-09-27T14:44:35+02:00</time>
      </trkpt>
      <trkpt lat="42.95971" lon="0.68677">
        <ele>1346</ele>
        <time>2023-09-27T14:44:56+02:00</time>
      </trkpt>
      <trkpt lat="42.95989" lon="0.68684">
        <ele>1346</ele>
        <time>2023-09-27T14:45:14+02:00</time>
      </trkpt>
      <trkpt lat="42.96006" lon="0.68676">
        <ele>1341</ele>
        <time>2023-09-27T14:45:34+02:00</time>
      </trkpt>
      <trkpt lat="42.96019" lon="0.68656">
        <ele>1334</ele>
        <time>2023-09-27T14:46:26+02:00</time>
      </trkpt>
      <trkpt lat="42.96009" lon="0.68635">
        <ele>1330</ele>
        <time>2023-09-27T14:46:43+02:00</time>
      </trkpt>
      <trkpt lat="42.96001" lon="0.68611">
        <ele>1328</ele>
        <time>2023-09-27T14:47:02+02:00</time>
      </trkpt>
      <trkpt lat="42.96006" lon="0.68587">
        <ele>1323</ele>
        <time>2023-09-27T14:47:24+02:00</time>
      </trkpt>
      <trkpt lat="42.96011" lon="0.68562">
        <ele>1318</ele>
        <time>2023-09-27T14:47:47+02:00</time>
      </trkpt>
      <trkpt lat="42.96017" lon="0.68538">
        <ele>1314</ele>
        <time>2023-09-27T14:50:09+02:00</time>
      </trkpt>
      <trkpt lat="42.96023" lon="0.68516">
        <ele>1311</ele>
        <time>2023-09-27T14:50:31+02:00</time>
      </trkpt>
      <trkpt lat="42.96027" lon="0.6849">
        <ele>1311</ele>
        <time>2023-09-27T14:50:56+02:00</time>
      </trkpt>
      <trkpt lat="42.96036" lon="0.68472">
        <ele>1308</ele>
        <time>2023-09-27T14:51:17+02:00</time>
      </trkpt>
      <trkpt lat="42.96053" lon="0.6846">
        <ele>1302</ele>
        <time>2023-09-27T14:51:38+02:00</time>
      </trkpt>
      <trkpt lat="42.96071" lon="0.68458">
        <ele>1296</ele>
        <time>2023-09-27T14:51:56+02:00</time>
      </trkpt>
      <trkpt lat="42.96089" lon="0.68448">
        <ele>1290</ele>
        <time>2023-09-27T14:52:20+02:00</time>
      </trkpt>
      <trkpt lat="42.96101" lon="0.68465">
        <ele>1283</ele>
        <time>2023-09-27T14:52:50+02:00</time>
      </trkpt>
      <trkpt lat="42.96103" lon="0.6849">
        <ele>1281</ele>
        <time>2023-09-27T14:53:11+02:00</time>
      </trkpt>
      <trkpt lat="42.96112" lon="0.68511">
        <ele>1279</ele>
        <time>2023-09-27T14:53:30+02:00</time>
      </trkpt>
      <trkpt lat="42.96127" lon="0.68526">
        <ele>1274</ele>
        <time>2023-09-27T14:53:48+02:00</time>
      </trkpt>
      <trkpt lat="42.96142" lon="0.68542">
        <ele>1272</ele>
        <time>2023-09-27T14:54:11+02:00</time>
      </trkpt>
      <trkpt lat="42.96161" lon="0.68547">
        <ele>1269</ele>
        <time>2023-09-27T14:54:31+02:00</time>
      </trkpt>
      <trkpt lat="42.96178" lon="0.68536">
        <ele>1261</ele>
        <time>2023-09-27T14:54:54+02:00</time>
      </trkpt>
      <trkpt lat="42.96197" lon="0.68537">
        <ele>1258</ele>
        <time>2023-09-27T14:55:12+02:00</time>
      </trkpt>
      <trkpt lat="42.96199" lon="0.68518">
        <ele>1251</ele>
        <time>2023-09-27T14:56:08+02:00</time>
      </trkpt>
      <trkpt lat="42.96209" lon="0.68503">
        <ele>1244</ele>
        <time>2023-09-27T14:57:33+02:00</time>
      </trkpt>
      <trkpt lat="42.96225" lon="0.68484">
        <ele>1236</ele>
        <time>2023-09-27T14:58:09+02:00</time>
      </trkpt>
      <trkpt lat="42.96244" lon="0.68479">
        <ele>1231</ele>
        <time>2023-09-27T14:58:27+02:00</time>
      </trkpt>
      <trkpt lat="42.96253" lon="0.68452">
        <ele>1223</ele>
        <time>2023-09-27T14:59:00+02:00</time>
      </trkpt>
      <trkpt lat="42.96267" lon="0.68435">
        <ele>1216</ele>
        <time>2023-09-27T14:59:25+02:00</time>
      </trkpt>
      <trkpt lat="42.96284" lon="0.68425">
        <ele>1208</ele>
        <time>2023-09-27T14:59:45+02:00</time>
      </trkpt>
      <trkpt lat="42.963" lon="0.68411">
        <ele>1198</ele>
        <time>2023-09-27T15:00:05+02:00</time>
      </trkpt>
      <trkpt lat="42.96316" lon="0.68397">
        <ele>1187</ele>
        <time>2023-09-27T15:00:30+02:00</time>
      </trkpt>
      <trkpt lat="42.96334" lon="0.68388">
        <ele>1177</ele>
        <time>2023-09-27T15:00:51+02:00</time>
      </trkpt>
      <trkpt lat="42.96334" lon="0.68364">
        <ele>1171</ele>
        <time>2023-09-27T15:01:15+02:00</time>
      </trkpt>
      <trkpt lat="42.96342" lon="0.68356">
        <ele>1167</ele>
        <time>2023-09-27T15:02:06+02:00</time>
      </trkpt>
      <trkpt lat="42.96331" lon="0.68344">
        <ele>1166</ele>
      </trkpt>
      <trkpt lat="42.96327" lon="0.68316">
        <ele>1165</ele>
        <time>2023-09-27T15:15:58+02:00</time>
      </trkpt>
      <trkpt lat="42.9633" lon="0.68292">
        <ele>1165</ele>
        <time>2023-09-27T15:16:22+02:00</time>
      </trkpt>
      <trkpt lat="42.96341" lon="0.6827">
        <ele>1163</ele>
        <time>2023-09-27T15:16:39+02:00</time>
      </trkpt>
      <trkpt lat="42.96353" lon="0.6825">
        <ele>1157</ele>
        <time>2023-09-27T15:16:55+02:00</time>
      </trkpt>
      <trkpt lat="42.96364" lon="0.68228">
        <ele>1161</ele>
        <time>2023-09-27T15:17:13+02:00</time>
      </trkpt>
      <trkpt lat="42.96376" lon="0.68208">
        <ele>1161</ele>
        <time>2023-09-27T15:17:30+02:00</time>
      </trkpt>
      <trkpt lat="42.9639" lon="0.68189">
        <ele>1159</ele>
        <time>2023-09-27T15:17:46+02:00</time>
      </trkpt>
      <trkpt lat="42.96391" lon="0.68175">
        <ele>1161</ele>
        <time>2023-09-27T15:17:55+02:00</time>
      </trkpt>
      <trkpt lat="42.96382" lon="0.68153">
        <ele>1167</ele>
        <time>2023-09-27T15:18:10+02:00</time>
      </trkpt>
      <trkpt lat="42.9638" lon="0.68128">
        <ele>1169</ele>
        <time>2023-09-27T15:18:26+02:00</time>
      </trkpt>
      <trkpt lat="42.96396" lon="0.68117">
        <ele>1164</ele>
        <time>2023-09-27T15:18:40+02:00</time>
      </trkpt>
      <trkpt lat="42.96416" lon="0.68111">
        <ele>1158</ele>
        <time>2023-09-27T15:18:56+02:00</time>
      </trkpt>
      <trkpt lat="42.96417" lon="0.68088">
        <ele>1155</ele>
        <time>2023-09-27T15:19:10+02:00</time>
      </trkpt>
      <trkpt lat="42.96404" lon="0.68071">
        <ele>1154</ele>
        <time>2023-09-27T15:19:26+02:00</time>
      </trkpt>
      <trkpt lat="42.96386" lon="0.68058">
        <ele>1154</ele>
        <time>2023-09-27T15:19:42+02:00</time>
      </trkpt>
      <trkpt lat="42.96369" lon="0.6805">
        <ele>1150</ele>
        <time>2023-09-27T15:19:57+02:00</time>
      </trkpt>
      <trkpt lat="42.9635" lon="0.68051">
        <ele>1149</ele>
        <time>2023-09-27T15:20:13+02:00</time>
      </trkpt>
      <trkpt lat="42.9633" lon="0.6805">
        <ele>1147</ele>
        <time>2023-09-27T15:20:30+02:00</time>
      </trkpt>
      <trkpt lat="42.96312" lon="0.68041">
        <ele>1140</ele>
        <time>2023-09-27T15:20:46+02:00</time>
      </trkpt>
      <trkpt lat="42.96294" lon="0.68035">
        <ele>1137</ele>
        <time>2023-09-27T15:21:01+02:00</time>
      </trkpt>
      <trkpt lat="42.96276" lon="0.68032">
        <ele>1135</ele>
        <time>2023-09-27T15:21:20+02:00</time>
      </trkpt>
      <trkpt lat="42.96257" lon="0.68027">
        <ele>1132</ele>
        <time>2023-09-27T15:21:38+02:00</time>
      </trkpt>
      <trkpt lat="42.96238" lon="0.68029">
        <ele>1132</ele>
        <time>2023-09-27T15:21:54+02:00</time>
      </trkpt>
      <trkpt lat="42.96219" lon="0.68024">
        <ele>1130</ele>
        <time>2023-09-27T15:22:11+02:00</time>
      </trkpt>
      <trkpt lat="42.962" lon="0.68019">
        <ele>1129</ele>
        <time>2023-09-27T15:22:28+02:00</time>
      </trkpt>
      <trkpt lat="42.96181" lon="0.68016">
        <ele>1127</ele>
        <time>2023-09-27T15:22:45+02:00</time>
      </trkpt>
      <trkpt lat="42.96165" lon="0.68004">
        <ele>1123</ele>
        <time>2023-09-27T15:23:19+02:00</time>
      </trkpt>
      <trkpt lat="42.96183" lon="0.67998">
        <ele>1120</ele>
        <time>2023-09-27T15:23:37+02:00</time>
      </trkpt>
      <trkpt lat="42.96201" lon="0.67988">
        <ele>1116</ele>
        <time>2023-09-27T15:23:55+02:00</time>
      </trkpt>
      <trkpt lat="42.9622" lon="0.6798">
        <ele>1113</ele>
        <time>2023-09-27T15:24:13+02:00</time>
      </trkpt>
      <trkpt lat="42.96239" lon="0.67974">
        <ele>1110</ele>
        <time>2023-09-27T15:24:31+02:00</time>
      </trkpt>
      <trkpt lat="42.96258" lon="0.6797">
        <ele>1108</ele>
        <time>2023-09-27T15:24:47+02:00</time>
      </trkpt>
      <trkpt lat="42.96278" lon="0.67968">
        <ele>1106</ele>
        <time>2023-09-27T15:25:35+02:00</time>
      </trkpt>
      <trkpt lat="42.96295" lon="0.67962">
        <ele>1103</ele>
        <time>2023-09-27T15:25:54+02:00</time>
      </trkpt>
      <trkpt lat="42.96314" lon="0.67959">
        <ele>1101</ele>
        <time>2023-09-27T15:26:13+02:00</time>
      </trkpt>
      <trkpt lat="42.96332" lon="0.67955">
        <ele>1099</ele>
        <time>2023-09-27T15:26:30+02:00</time>
      </trkpt>
      <trkpt lat="42.96351" lon="0.67953">
        <ele>1098</ele>
        <time>2023-09-27T15:26:48+02:00</time>
      </trkpt>
      <trkpt lat="42.9637" lon="0.67948">
        <ele>1096</ele>
        <time>2023-09-27T15:27:07+02:00</time>
      </trkpt>
      <trkpt lat="42.96388" lon="0.67943">
        <ele>1094</ele>
        <time>2023-09-27T15:27:24+02:00</time>
      </trkpt>
      <trkpt lat="42.96408" lon="0.67938">
        <ele>1093</ele>
        <time>2023-09-27T15:27:42+02:00</time>
      </trkpt>
      <trkpt lat="42.96428" lon="0.67932">
        <ele>1091</ele>
        <time>2023-09-27T15:27:59+02:00</time>
      </trkpt>
      <trkpt lat="42.96447" lon="0.67931">
        <ele>1091</ele>
        <time>2023-09-27T15:28:15+02:00</time>
      </trkpt>
      <trkpt lat="42.96467" lon="0.67931">
        <ele>1092</ele>
        <time>2023-09-27T15:28:32+02:00</time>
      </trkpt>
      <trkpt lat="42.96486" lon="0.6793">
        <ele>1092</ele>
        <time>2023-09-27T15:28:48+02:00</time>
      </trkpt>
      <trkpt lat="42.96504" lon="0.67928">
        <ele>1091</ele>
        <time>2023-09-27T15:29:02+02:00</time>
      </trkpt>
      <trkpt lat="42.96524" lon="0.67931">
        <ele>1091</ele>
        <time>2023-09-27T15:29:18+02:00</time>
      </trkpt>
      <trkpt lat="42.96543" lon="0.6794">
        <ele>1092</ele>
        <time>2023-09-27T15:29:35+02:00</time>
      </trkpt>
      <trkpt lat="42.9656" lon="0.67948">
        <ele>1093</ele>
        <time>2023-09-27T15:29:51+02:00</time>
      </trkpt>
      <trkpt lat="42.96579" lon="0.67952">
        <ele>1091</ele>
        <time>2023-09-27T15:30:07+02:00</time>
      </trkpt>
      <trkpt lat="42.96599" lon="0.67955">
        <ele>1088</ele>
        <time>2023-09-27T15:30:24+02:00</time>
      </trkpt>
      <trkpt lat="42.96617" lon="0.67962">
        <ele>1086</ele>
        <time>2023-09-27T15:30:40+02:00</time>
      </trkpt>
      <trkpt lat="42.96635" lon="0.67971">
        <ele>1083</ele>
        <time>2023-09-27T15:30:54+02:00</time>
      </trkpt>
      <trkpt lat="42.9665" lon="0.67986">
        <ele>1080</ele>
        <time>2023-09-27T15:31:10+02:00</time>
      </trkpt>
      <trkpt lat="42.96654" lon="0.68011">
        <ele>1082</ele>
        <time>2023-09-27T15:31:28+02:00</time>
      </trkpt>
      <trkpt lat="42.96653" lon="0.68037">
        <ele>1085</ele>
        <time>2023-09-27T15:31:42+02:00</time>
      </trkpt>
      <trkpt lat="42.96657" lon="0.68063">
        <ele>1082</ele>
        <time>2023-09-27T15:32:00+02:00</time>
      </trkpt>
      <trkpt lat="42.96659" lon="0.6809">
        <ele>1076</ele>
        <time>2023-09-27T15:32:16+02:00</time>
      </trkpt>
      <trkpt lat="42.96661" lon="0.68115">
        <ele>1070</ele>
        <time>2023-09-27T15:32:32+02:00</time>
      </trkpt>
      <trkpt lat="42.96658" lon="0.68142">
        <ele>1067</ele>
        <time>2023-09-27T15:32:47+02:00</time>
      </trkpt>
      <trkpt lat="42.96656" lon="0.68168">
        <ele>1063</ele>
        <time>2023-09-27T15:33:05+02:00</time>
      </trkpt>
      <trkpt lat="42.96657" lon="0.68195">
        <ele>1061</ele>
        <time>2023-09-27T15:33:23+02:00</time>
      </trkpt>
      <trkpt lat="42.9667" lon="0.68214">
        <ele>1062</ele>
        <time>2023-09-27T15:33:39+02:00</time>
      </trkpt>
      <trkpt lat="42.96688" lon="0.68223">
        <ele>1062</ele>
        <time>2023-09-27T15:33:57+02:00</time>
      </trkpt>
      <trkpt lat="42.96707" lon="0.68226">
        <ele>1061</ele>
        <time>2023-09-27T15:34:14+02:00</time>
      </trkpt>
      <trkpt lat="42.96726" lon="0.68228">
        <ele>1061</ele>
        <time>2023-09-27T15:34:30+02:00</time>
      </trkpt>
      <trkpt lat="42.96745" lon="0.68232">
        <ele>1062</ele>
        <time>2023-09-27T15:34:45+02:00</time>
      </trkpt>
      <trkpt lat="42.96763" lon="0.68237">
        <ele>1061</ele>
        <time>2023-09-27T15:34:59+02:00</time>
      </trkpt>
      <trkpt lat="42.96782" lon="0.68241">
        <ele>1060</ele>
        <time>2023-09-27T15:35:16+02:00</time>
      </trkpt>
      <trkpt lat="42.96801" lon="0.68247">
        <ele>1056</ele>
        <time>2023-09-27T15:35:32+02:00</time>
      </trkpt>
      <trkpt lat="42.96819" lon="0.68253">
        <ele>1052</ele>
        <time>2023-09-27T15:35:48+02:00</time>
      </trkpt>
      <trkpt lat="42.96837" lon="0.68264">
        <ele>1051</ele>
        <time>2023-09-27T15:36:04+02:00</time>
      </trkpt>
      <trkpt lat="42.96856" lon="0.68272">
        <ele>1047</ele>
        <time>2023-09-27T15:36:22+02:00</time>
      </trkpt>
      <trkpt lat="42.96874" lon="0.68279">
        <ele>1043</ele>
        <time>2023-09-27T15:36:36+02:00</time>
      </trkpt>
      <trkpt lat="42.96893" lon="0.6829">
        <ele>1041</ele>
        <time>2023-09-27T15:36:53+02:00</time>
      </trkpt>
      <trkpt lat="42.96911" lon="0.68298">
        <ele>1038</ele>
        <time>2023-09-27T15:37:10+02:00</time>
      </trkpt>
      <trkpt lat="42.96928" lon="0.68311">
        <ele>1037</ele>
        <time>2023-09-27T15:37:29+02:00</time>
      </trkpt>
      <trkpt lat="42.96944" lon="0.68323">
        <ele>1037</ele>
        <time>2023-09-27T15:37:44+02:00</time>
      </trkpt>
      <trkpt lat="42.9696" lon="0.68336">
        <ele>1035</ele>
        <time>2023-09-27T15:37:58+02:00</time>
      </trkpt>
      <trkpt lat="42.96975" lon="0.6835">
        <ele>1034</ele>
        <time>2023-09-27T15:38:14+02:00</time>
      </trkpt>
      <trkpt lat="42.96992" lon="0.68363">
        <ele>1031</ele>
        <time>2023-09-27T15:38:30+02:00</time>
      </trkpt>
      <trkpt lat="42.9701" lon="0.6837">
        <ele>1028</ele>
        <time>2023-09-27T15:38:46+02:00</time>
      </trkpt>
      <trkpt lat="42.97029" lon="0.68371">
        <ele>1028</ele>
        <time>2023-09-27T15:39:01+02:00</time>
      </trkpt>
      <trkpt lat="42.97048" lon="0.68371">
        <ele>1026</ele>
        <time>2023-09-27T15:39:17+02:00</time>
      </trkpt>
      <trkpt lat="42.97068" lon="0.68372">
        <ele>1024</ele>
        <time>2023-09-27T15:39:33+02:00</time>
      </trkpt>
      <trkpt lat="42.97087" lon="0.68371">
        <ele>1022</ele>
        <time>2023-09-27T15:39:48+02:00</time>
      </trkpt>
      <trkpt lat="42.97106" lon="0.68372">
        <ele>1021</ele>
        <time>2023-09-27T15:40:04+02:00</time>
      </trkpt>
      <trkpt lat="42.97124" lon="0.68377">
        <ele>1020</ele>
        <time>2023-09-27T15:40:17+02:00</time>
      </trkpt>
      <trkpt lat="42.97143" lon="0.68376">
        <ele>1018</ele>
        <time>2023-09-27T15:40:32+02:00</time>
      </trkpt>
      <trkpt lat="42.97162" lon="0.68372">
        <ele>1014</ele>
        <time>2023-09-27T15:40:47+02:00</time>
      </trkpt>
      <trkpt lat="42.97167" lon="0.6835">
        <ele>1006</ele>
        <time>2023-09-27T15:41:01+02:00</time>
      </trkpt>
      <trkpt lat="42.97159" lon="0.68326">
        <ele>1000</ele>
        <time>2023-09-27T15:41:15+02:00</time>
      </trkpt>
      <trkpt lat="42.97157" lon="0.683">
        <ele>996</ele>
        <time>2023-09-27T15:41:32+02:00</time>
      </trkpt>
      <trkpt lat="42.97174" lon="0.68303">
        <ele>999</ele>
        <time>2023-09-27T15:41:48+02:00</time>
      </trkpt>
      <trkpt lat="42.97191" lon="0.68315">
        <ele>1001</ele>
        <time>2023-09-27T15:42:04+02:00</time>
      </trkpt>
      <trkpt lat="42.97208" lon="0.68323">
        <ele>1000</ele>
        <time>2023-09-27T15:42:20+02:00</time>
      </trkpt>
      <trkpt lat="42.97227" lon="0.68328">
        <ele>998</ele>
        <time>2023-09-27T15:42:36+02:00</time>
      </trkpt>
      <trkpt lat="42.97247" lon="0.68333">
        <ele>996</ele>
        <time>2023-09-27T15:42:52+02:00</time>
      </trkpt>
      <trkpt lat="42.97266" lon="0.6834">
        <ele>994</ele>
        <time>2023-09-27T15:43:08+02:00</time>
      </trkpt>
      <trkpt lat="42.97283" lon="0.68347">
        <ele>993</ele>
        <time>2023-09-27T15:43:23+02:00</time>
      </trkpt>
      <trkpt lat="42.97302" lon="0.68355">
        <ele>991</ele>
        <time>2023-09-27T15:43:39+02:00</time>
      </trkpt>
      <trkpt lat="42.97321" lon="0.6836">
        <ele>989</ele>
        <time>2023-09-27T15:43:54+02:00</time>
      </trkpt>
      <trkpt lat="42.9734" lon="0.68367">
        <ele>988</ele>
        <time>2023-09-27T15:44:09+02:00</time>
      </trkpt>
      <trkpt lat="42.97358" lon="0.68376">
        <ele>987</ele>
        <time>2023-09-27T15:44:24+02:00</time>
      </trkpt>
      <trkpt lat="42.97376" lon="0.68384">
        <ele>985</ele>
        <time>2023-09-27T15:44:40+02:00</time>
      </trkpt>
      <trkpt lat="42.97394" lon="0.68393">
        <ele>983</ele>
        <time>2023-09-27T15:44:55+02:00</time>
      </trkpt>
      <trkpt lat="42.97413" lon="0.68403">
        <ele>981</ele>
        <time>2023-09-27T15:45:11+02:00</time>
      </trkpt>
      <trkpt lat="42.97431" lon="0.68413">
        <ele>979</ele>
        <time>2023-09-27T15:45:27+02:00</time>
      </trkpt>
      <trkpt lat="42.9745" lon="0.68421">
        <ele>976</ele>
        <time>2023-09-27T15:45:42+02:00</time>
      </trkpt>
      <trkpt lat="42.97468" lon="0.68426">
        <ele>972</ele>
        <time>2023-09-27T15:45:58+02:00</time>
      </trkpt>
      <trkpt lat="42.97487" lon="0.6843">
        <ele>969</ele>
        <time>2023-09-27T15:46:13+02:00</time>
      </trkpt>
      <trkpt lat="42.97507" lon="0.68436">
        <ele>968</ele>
        <time>2023-09-27T15:46:30+02:00</time>
      </trkpt>
      <trkpt lat="42.97526" lon="0.68439">
        <ele>967</ele>
        <time>2023-09-27T15:46:47+02:00</time>
      </trkpt>
      <trkpt lat="42.97544" lon="0.68446">
        <ele>966</ele>
        <time>2023-09-27T15:47:03+02:00</time>
      </trkpt>
      <trkpt lat="42.97562" lon="0.68455">
        <ele>965</ele>
        <time>2023-09-27T15:47:19+02:00</time>
      </trkpt>
      <trkpt lat="42.9758" lon="0.68467">
        <ele>963</ele>
        <time>2023-09-27T15:47:35+02:00</time>
      </trkpt>
      <trkpt lat="42.97596" lon="0.68477">
        <ele>961</ele>
        <time>2023-09-27T15:47:51+02:00</time>
      </trkpt>
      <trkpt lat="42.97611" lon="0.68489">
        <ele>958</ele>
        <time>2023-09-27T15:48:30+02:00</time>
      </trkpt>
      <trkpt lat="42.97626" lon="0.68492">
        <ele>954</ele>
        <time>2023-09-27T15:48:56+02:00</time>
      </trkpt>
      <trkpt lat="42.97643" lon="0.68486">
        <ele>948</ele>
        <time>2023-09-27T15:49:17+02:00</time>
      </trkpt>
      <trkpt lat="42.97655" lon="0.68467">
        <ele>943</ele>
        <time>2023-09-27T15:49:37+02:00</time>
      </trkpt>
      <trkpt lat="42.97662" lon="0.68445">
        <ele>938</ele>
        <time>2023-09-27T15:49:54+02:00</time>
      </trkpt>
      <trkpt lat="42.97669" lon="0.68421">
        <ele>936</ele>
        <time>2023-09-27T15:50:10+02:00</time>
      </trkpt>
      <trkpt lat="42.97679" lon="0.68399">
        <ele>935</ele>
        <time>2023-09-27T15:50:28+02:00</time>
      </trkpt>
      <trkpt lat="42.9769" lon="0.68377">
        <ele>934</ele>
        <time>2023-09-27T15:50:44+02:00</time>
      </trkpt>
      <trkpt lat="42.977" lon="0.68356">
        <ele>934</ele>
        <time>2023-09-27T15:51:00+02:00</time>
      </trkpt>
      <trkpt lat="42.97714" lon="0.68339">
        <ele>935</ele>
        <time>2023-09-27T15:51:16+02:00</time>
      </trkpt>
      <trkpt lat="42.97722" lon="0.68329">
        <ele>936</ele>
        <time>2023-09-27T15:51:25+02:00</time>
      </trkpt>
      <trkpt lat="42.97734" lon="0.6831">
        <ele>938</ele>
        <time>2023-09-27T15:51:40+02:00</time>
      </trkpt>
      <trkpt lat="42.97743" lon="0.68289">
        <ele>937</ele>
        <time>2023-09-27T15:51:56+02:00</time>
      </trkpt>
      <trkpt lat="42.97757" lon="0.6827">
        <ele>936</ele>
        <time>2023-09-27T15:52:12+02:00</time>
      </trkpt>
      <trkpt lat="42.97769" lon="0.68251">
        <ele>935</ele>
        <time>2023-09-27T15:52:28+02:00</time>
      </trkpt>
      <trkpt lat="42.97781" lon="0.68232">
        <ele>935</ele>
        <time>2023-09-27T15:52:45+02:00</time>
      </trkpt>
      <trkpt lat="42.97789" lon="0.68208">
        <ele>933</ele>
        <time>2023-09-27T15:53:00+02:00</time>
      </trkpt>
      <trkpt lat="42.97795" lon="0.68183">
        <ele>930</ele>
        <time>2023-09-27T15:53:16+02:00</time>
      </trkpt>
      <trkpt lat="42.97802" lon="0.68157">
        <ele>928</ele>
        <time>2023-09-27T15:53:33+02:00</time>
      </trkpt>
      <trkpt lat="42.97814" lon="0.68137">
        <ele>925</ele>
        <time>2023-09-27T15:53:50+02:00</time>
      </trkpt>
      <trkpt lat="42.97833" lon="0.68137">
        <ele>926</ele>
        <time>2023-09-27T15:54:06+02:00</time>
      </trkpt>
      <trkpt lat="42.97852" lon="0.68142">
        <ele>922</ele>
        <time>2023-09-27T15:54:23+02:00</time>
      </trkpt>
      <trkpt lat="42.97871" lon="0.68142">
        <ele>918</ele>
        <time>2023-09-27T15:54:39+02:00</time>
      </trkpt>
      <trkpt lat="42.9789" lon="0.68139">
        <ele>915</ele>
        <time>2023-09-27T15:54:55+02:00</time>
      </trkpt>
      <trkpt lat="42.97909" lon="0.68133">
        <ele>915</ele>
        <time>2023-09-27T15:55:12+02:00</time>
      </trkpt>
      <trkpt lat="42.97928" lon="0.68126">
        <ele>912</ele>
        <time>2023-09-27T15:55:29+02:00</time>
      </trkpt>
      <trkpt lat="42.97946" lon="0.68128">
        <ele>912</ele>
        <time>2023-09-27T15:55:46+02:00</time>
      </trkpt>
      <trkpt lat="42.97961" lon="0.68144">
        <ele>913</ele>
        <time>2023-09-27T15:56:02+02:00</time>
      </trkpt>
      <trkpt lat="42.97971" lon="0.68165">
        <ele>915</ele>
        <time>2023-09-27T15:56:18+02:00</time>
      </trkpt>
      <trkpt lat="42.97982" lon="0.68187">
        <ele>914</ele>
        <time>2023-09-27T15:56:35+02:00</time>
      </trkpt>
      <trkpt lat="42.97992" lon="0.6821">
        <ele>913</ele>
        <time>2023-09-27T15:56:51+02:00</time>
      </trkpt>
      <trkpt lat="42.97999" lon="0.68235">
        <ele>913</ele>
        <time>2023-09-27T15:57:08+02:00</time>
      </trkpt>
      <trkpt lat="42.98006" lon="0.6826">
        <ele>912</ele>
        <time>2023-09-27T15:57:25+02:00</time>
      </trkpt>
      <trkpt lat="42.98016" lon="0.68282">
        <ele>909</ele>
        <time>2023-09-27T15:57:42+02:00</time>
      </trkpt>
      <trkpt lat="42.98025" lon="0.68306">
        <ele>905</ele>
        <time>2023-09-27T15:57:58+02:00</time>
      </trkpt>
      <trkpt lat="42.98033" lon="0.6833">
        <ele>901</ele>
        <time>2023-09-27T15:58:14+02:00</time>
      </trkpt>
      <trkpt lat="42.98042" lon="0.68353">
        <ele>898</ele>
        <time>2023-09-27T15:58:30+02:00</time>
      </trkpt>
      <trkpt lat="42.98053" lon="0.68374">
        <ele>894</ele>
        <time>2023-09-27T15:58:47+02:00</time>
      </trkpt>
      <trkpt lat="42.98066" lon="0.68395">
        <ele>895</ele>
        <time>2023-09-27T15:59:02+02:00</time>
      </trkpt>
      <trkpt lat="42.98081" lon="0.6841">
        <ele>896</ele>
        <time>2023-09-27T15:59:18+02:00</time>
      </trkpt>
      <trkpt lat="42.98101" lon="0.6841">
        <ele>892</ele>
        <time>2023-09-27T15:59:34+02:00</time>
      </trkpt>
      <trkpt lat="42.98119" lon="0.68412">
        <ele>889</ele>
        <time>2023-09-27T15:59:50+02:00</time>
      </trkpt>
      <trkpt lat="42.98138" lon="0.68416">
        <ele>887</ele>
        <time>2023-09-27T16:00:06+02:00</time>
      </trkpt>
      <trkpt lat="42.98151" lon="0.68435">
        <ele>892</ele>
        <time>2023-09-27T16:00:24+02:00</time>
      </trkpt>
      <trkpt lat="42.98168" lon="0.68446">
        <ele>893</ele>
        <time>2023-09-27T16:00:41+02:00</time>
      </trkpt>
      <trkpt lat="42.98186" lon="0.68459">
        <ele>891</ele>
        <time>2023-09-27T16:00:58+02:00</time>
      </trkpt>
      <trkpt lat="42.98201" lon="0.68476">
        <ele>890</ele>
        <time>2023-09-27T16:01:14+02:00</time>
      </trkpt>
      <trkpt lat="42.98214" lon="0.68494">
        <ele>888</ele>
        <time>2023-09-27T16:01:30+02:00</time>
      </trkpt>
      <trkpt lat="42.98226" lon="0.68515">
        <ele>887</ele>
        <time>2023-09-27T16:01:46+02:00</time>
      </trkpt>
      <trkpt lat="42.98237" lon="0.68538">
        <ele>887</ele>
        <time>2023-09-27T16:02:03+02:00</time>
      </trkpt>
      <trkpt lat="42.98246" lon="0.6856">
        <ele>885</ele>
        <time>2023-09-27T16:02:19+02:00</time>
      </trkpt>
      <trkpt lat="42.98253" lon="0.68584">
        <ele>882</ele>
        <time>2023-09-27T16:02:35+02:00</time>
      </trkpt>
      <trkpt lat="42.98259" lon="0.68609">
        <ele>877</ele>
        <time>2023-09-27T16:02:51+02:00</time>
      </trkpt>
      <trkpt lat="42.98268" lon="0.68631">
        <ele>873</ele>
        <time>2023-09-27T16:03:07+02:00</time>
      </trkpt>
      <trkpt lat="42.98287" lon="0.68636">
        <ele>868</ele>
        <time>2023-09-27T16:03:25+02:00</time>
      </trkpt>
      <trkpt lat="42.98305" lon="0.68641">
        <ele>866</ele>
        <time>2023-09-27T16:03:41+02:00</time>
      </trkpt>
      <trkpt lat="42.98318" lon="0.68659">
        <ele>866</ele>
        <time>2023-09-27T16:03:57+02:00</time>
      </trkpt>
      <trkpt lat="42.98329" lon="0.68679">
        <ele>866</ele>
        <time>2023-09-27T16:04:12+02:00</time>
      </trkpt>
      <trkpt lat="42.98343" lon="0.68697">
        <ele>864</ele>
        <time>2023-09-27T16:04:29+02:00</time>
      </trkpt>
      <trkpt lat="42.98357" lon="0.68715">
        <ele>863</ele>
        <time>2023-09-27T16:04:46+02:00</time>
      </trkpt>
      <trkpt lat="42.98371" lon="0.68733">
        <ele>862</ele>
        <time>2023-09-27T16:05:03+02:00</time>
      </trkpt>
      <trkpt lat="42.98385" lon="0.6875">
        <ele>861</ele>
        <time>2023-09-27T16:05:19+02:00</time>
      </trkpt>
      <trkpt lat="42.98402" lon="0.68763">
        <ele>858</ele>
        <time>2023-09-27T16:05:35+02:00</time>
      </trkpt>
      <trkpt lat="42.98419" lon="0.68775">
        <ele>856</ele>
        <time>2023-09-27T16:05:51+02:00</time>
      </trkpt>
      <trkpt lat="42.98434" lon="0.68791">
        <ele>856</ele>
        <time>2023-09-27T16:06:07+02:00</time>
      </trkpt>
      <trkpt lat="42.98446" lon="0.68812">
        <ele>855</ele>
        <time>2023-09-27T16:06:22+02:00</time>
      </trkpt>
      <trkpt lat="42.98454" lon="0.68837">
        <ele>852</ele>
        <time>2023-09-27T16:06:38+02:00</time>
      </trkpt>
      <trkpt lat="42.98459" lon="0.68862">
        <ele>849</ele>
        <time>2023-09-27T16:06:53+02:00</time>
      </trkpt>
      <trkpt lat="42.98462" lon="0.68888">
        <ele>848</ele>
        <time>2023-09-27T16:07:10+02:00</time>
      </trkpt>
      <trkpt lat="42.98475" lon="0.68908">
        <ele>847</ele>
        <time>2023-09-27T16:07:27+02:00</time>
      </trkpt>
      <trkpt lat="42.98489" lon="0.68925">
        <ele>845</ele>
        <time>2023-09-27T16:07:44+02:00</time>
      </trkpt>
      <trkpt lat="42.98504" lon="0.68943">
        <ele>842</ele>
        <time>2023-09-27T16:08:02+02:00</time>
      </trkpt>
      <trkpt lat="42.98517" lon="0.68962">
        <ele>841</ele>
        <time>2023-09-27T16:08:16+02:00</time>
      </trkpt>
      <trkpt lat="42.98529" lon="0.68982">
        <ele>839</ele>
        <time>2023-09-27T16:08:35+02:00</time>
      </trkpt>
      <trkpt lat="42.9854" lon="0.69001">
        <ele>837</ele>
        <time>2023-09-27T16:08:49+02:00</time>
      </trkpt>
      <trkpt lat="42.98552" lon="0.69021">
        <ele>835</ele>
        <time>2023-09-27T16:09:04+02:00</time>
      </trkpt>
      <trkpt lat="42.98563" lon="0.69042">
        <ele>833</ele>
        <time>2023-09-27T16:09:20+02:00</time>
      </trkpt>
      <trkpt lat="42.9858" lon="0.69055">
        <ele>829</ele>
        <time>2023-09-27T16:09:38+02:00</time>
      </trkpt>
      <trkpt lat="42.9859" lon="0.69057">
        <ele>828</ele>
        <time>2023-09-27T16:09:48+02:00</time>
      </trkpt>
      <trkpt lat="42.98612" lon="0.69057">
        <ele>825</ele>
        <time>2023-09-27T16:10:27+02:00</time>
      </trkpt>
      <trkpt lat="42.98627" lon="0.69074">
        <ele>826</ele>
        <time>2023-09-27T16:10:45+02:00</time>
      </trkpt>
      <trkpt lat="42.98641" lon="0.69092">
        <ele>826</ele>
        <time>2023-09-27T16:11:01+02:00</time>
      </trkpt>
      <trkpt lat="42.98658" lon="0.69103">
        <ele>824</ele>
        <time>2023-09-27T16:11:16+02:00</time>
      </trkpt>
      <trkpt lat="42.98675" lon="0.69116">
        <ele>822</ele>
        <time>2023-09-27T16:11:31+02:00</time>
      </trkpt>
      <trkpt lat="42.98691" lon="0.6913">
        <ele>819</ele>
        <time>2023-09-27T16:11:46+02:00</time>
      </trkpt>
      <trkpt lat="42.98705" lon="0.69147">
        <ele>817</ele>
        <time>2023-09-27T16:12:02+02:00</time>
      </trkpt>
      <trkpt lat="42.98721" lon="0.69162">
        <ele>814</ele>
        <time>2023-09-27T16:12:18+02:00</time>
      </trkpt>
      <trkpt lat="42.98737" lon="0.69178">
        <ele>811</ele>
        <time>2023-09-27T16:12:34+02:00</time>
      </trkpt>
      <trkpt lat="42.98749" lon="0.69199">
        <ele>809</ele>
        <time>2023-09-27T16:12:52+02:00</time>
      </trkpt>
      <trkpt lat="42.98756" lon="0.69223">
        <ele>810</ele>
        <time>2023-09-27T16:13:07+02:00</time>
      </trkpt>
      <trkpt lat="42.98766" lon="0.69245">
        <ele>809</ele>
        <time>2023-09-27T16:13:22+02:00</time>
      </trkpt>
      <trkpt lat="42.98781" lon="0.69261">
        <ele>805</ele>
        <time>2023-09-27T16:13:37+02:00</time>
      </trkpt>
      <trkpt lat="42.988" lon="0.69263">
        <ele>799</ele>
        <time>2023-09-27T16:13:49+02:00</time>
      </trkpt>
      <trkpt lat="42.98819" lon="0.69267">
        <ele>797</ele>
        <time>2023-09-27T16:14:10+02:00</time>
      </trkpt>
      <trkpt lat="42.98836" lon="0.69279">
        <ele>796</ele>
        <time>2023-09-27T16:14:25+02:00</time>
      </trkpt>
      <trkpt lat="42.98851" lon="0.69295">
        <ele>796</ele>
        <time>2023-09-27T16:14:41+02:00</time>
      </trkpt>
      <trkpt lat="42.98869" lon="0.693">
        <ele>794</ele>
        <time>2023-09-27T16:14:55+02:00</time>
      </trkpt>
      <trkpt lat="42.98887" lon="0.69309">
        <ele>792</ele>
        <time>2023-09-27T16:15:10+02:00</time>
      </trkpt>
      <trkpt lat="42.98902" lon="0.69323">
        <ele>792</ele>
        <time>2023-09-27T16:15:26+02:00</time>
      </trkpt>
      <trkpt lat="42.98915" lon="0.69339">
        <ele>792</ele>
        <time>2023-09-27T16:16:00+02:00</time>
      </trkpt>
      <trkpt lat="42.98933" lon="0.69345">
        <ele>791</ele>
        <time>2023-09-27T16:16:16+02:00</time>
      </trkpt>
      <trkpt lat="42.98947" lon="0.69364">
        <ele>793</ele>
        <time>2023-09-27T16:16:34+02:00</time>
      </trkpt>
    </trkseg>
  </trk>
</gpx>